M I D A S
Marine Information and Data Acquisition System
Tripno 777 of the Zeeleeuw from 2004-06-01 07:27:25 to 2004-06-01 14:19:10
Back to CruiseResearch ActivitiesStationsMapUnderway DataData graphs

EquipmentUnitsComment
TimeDGPSUTC
LatitudeDGPSDM.mWGS84
LongitudeDGPSDM.mWGS84
TemperatureSBE03/SBE38deg celciusITS90
ConductivitySBE21S/mITS90
SalinitySBE21 Practical Salinity Units
ChlorophylAChelsea fluorimeterg/lCalibrated in Aceton
Missing or incorrect values are displayed as -999
Sea surface data collected by the RV Zeeleeuw from 2004-06-01 07:27:25 to 2004-06-01 14:19:10
                                                                                    Next 1000 lines
Time Latitude Longitude Temperature Conductivity Salinity ChlorophylA
2004-06-01 07:27:36 51°13.596 2°56.095 21.208586 0.021494 0.10454 9.668665
2004-06-01 07:27:41 51°13.596 2°56.095 21.213518 0.021494 0.104544 9.668665
2004-06-01 07:27:45 51°13.596 2°56.095 21.212126 0.021494 0.104546 9.634956
2004-06-01 07:27:50 51°13.595 2°56.096 21.236068 0.021494 0.104548 9.668665
2004-06-01 07:27:56 51°13.595 2°56.097 21.278323 0.021494 0.104549 9.634956
2004-06-01 07:28:01 51°13.594 2°56.099 21.282218 0.021494 0.104551 9.668665
2004-06-01 07:28:06 51°13.592 2°56.101 21.282218 0.021494 0.104551 9.668665
2004-06-01 07:28:11 51°13.591 2°56.104 21.276416 0.021494 0.104555 9.668665
2004-06-01 07:28:16 51°13.589 2°56.107 21.252249 0.021494 0.104556 9.668665
2004-06-01 07:28:21 51°13.587 2°56.111 21.250142 0.021494 0.104559 9.668665
2004-06-01 07:28:25 51°13.585 2°56.114 21.24072 0.021494 0.10456 9.668665
2004-06-01 07:28:31 51°13.582 2°56.119 21.238493 0.021494 0.104563 9.668665
2004-06-01 07:28:36 51°13.58 2°56.124 21.238493 0.021494 0.104563 9.668665
2004-06-01 07:28:41 51°13.577 2°56.129 21.229626 0.021494 0.104565 9.668665
2004-06-01 07:28:45 51°13.575 2°56.133 21.225211 0.021494 0.104567 9.668665
2004-06-01 07:28:51 51°13.571 2°56.139 21.215109 0.021494 0.104569 9.668665
2004-06-01 07:28:55 51°13.569 2°56.144 21.210376 0.021494 0.10457 9.668665
2004-06-01 07:29:01 51°13.565 2°56.151 21.171582 0.021494 0.104574 9.668665
2004-06-01 07:29:04 51°13.563 2°56.154 21.171582 0.021494 0.104574 9.668665
2004-06-01 07:29:11 51°13.558 2°56.162 21.174487 0.021494 0.104577 9.668665
2004-06-01 07:29:16 51°13.554 2°56.168 21.179064 0.021494 0.104579 9.634956
2004-06-01 07:29:21 51°13.551 2°56.174 21.175084 0.021494 0.10458 9.668665
2004-06-01 07:29:25 51°13.548 2°56.179 21.158885 0.021494 0.104583 9.668665
2004-06-01 07:29:31 51°13.544 2°56.186 21.247359 0.021494 0.104585 9.668665
2004-06-01 07:29:36 51°13.541 2°56.193 21.247359 0.021494 0.104585 9.668665
2004-06-01 07:29:41 51°13.539 2°56.2 21.356568 0.021494 0.104589 9.668665
2004-06-01 07:29:45 51°13.537 2°56.205 21.348946 0.021494 0.10459 9.634956
2004-06-01 07:29:51 51°13.535 2°56.215 21.368912 0.021494 0.104592 9.634956
2004-06-01 07:29:55 51°13.533 2°56.221 21.366769 0.021494 0.104595 9.702375
2004-06-01 07:30:01 51°13.533 2°56.231 21.366173 0.021494 0.104598 9.668665
2004-06-01 07:30:05 51°13.532 2°56.237 21.366173 0.021494 0.104598 9.668665
2004-06-01 07:30:11 51°13.533 2°56.247 21.337987 0.021494 0.1046 9.668665
2004-06-01 07:30:15 51°13.533 2°56.253 21.21503 0.021494 0.104603 9.634956
2004-06-01 07:30:21 51°13.534 2°56.259 21.091898 0.021494 0.104606 9.668665
2004-06-01 07:30:25 51°13.535 2°56.263 21.14941 0.021494 0.104609 9.634956
2004-06-01 07:30:31 51°13.535 2°56.266 21.206517 0.021494 0.104611 9.668665
2004-06-01 07:30:36 51°13.535 2°56.267 21.206517 0.021494 0.104611 9.668665
2004-06-01 07:30:41 51°13.535 2°56.267 21.107954 0.021494 0.104613 9.601247
2004-06-01 07:30:45 51°13.535 2°56.267 21.278125 0.021494 0.104617 9.668665
2004-06-01 07:30:51 51°13.535 2°56.268 21.188893 0.02139 0.104132 9.702375
2004-06-01 07:30:56 51°13.536 2°56.269 21.30844 0.021494 0.104621 9.668665
2004-06-01 07:31:01 51°13.537 2°56.272 19.159544 0.021494 0.104713 9.668665
2004-06-01 07:31:05 51°13.538 2°56.274 19.159544 0.021494 0.104713 9.668665
2004-06-01 07:31:11 51°13.54 2°56.278 18.132586 0.021494 0.104778 9.668665
2004-06-01 07:31:15 51°13.541 2°56.28 17.540186 3.720977 24.096433 26.995298
2004-06-01 07:31:21 51°13.542 2°56.281 17.449626 3.890258 26.054566 23.725486
2004-06-01 07:31:24 51°13.543 2°56.282 17.214638 4.073607 28.627678 15.803777
2004-06-01 07:31:31 51°13.542 2°56.282 17.085093 3.626927 25.869719 10.915913
2004-06-01 07:31:36 51°13.542 2°56.281 17.085093 3.626927 25.869719 10.915913
2004-06-01 07:31:41 51°13.54 2°56.28 17.057491 3.426446 24.802645 13.848631
2004-06-01 07:31:45 51°13.539 2°56.279 17.039548 3.340922 24.426153 14.927332
2004-06-01 07:31:51 51°13.536 2°56.277 17.019954 3.127048 22.890471 15.365554
2004-06-01 07:31:56 51°13.533 2°56.275 16.881916 3.221185 23.790866 15.298136
2004-06-01 07:32:01 51°13.53 2°56.274 16.785103 3.198651 23.687881 15.365554
2004-06-01 07:32:07 51°13.527 2°56.272 16.785103 3.198651 23.687881 15.365554
2004-06-01 07:32:12 51°13.526 2°56.271 16.747968 3.17317 23.53191 15.197007
2004-06-01 07:32:17 51°13.525 2°56.27 16.609552 3.140846 23.302224 15.331845
2004-06-01 07:32:21 51°13.524 2°56.27 16.539239 3.146954 23.404007 15.534101
2004-06-01 07:32:27 51°13.524 2°56.27 16.525458 3.245305 24.258395 15.736358
2004-06-01 07:32:31 51°13.525 2°56.27 16.477668 3.304071 24.803026 15.668939
2004-06-01 07:32:36 51°13.526 2°56.27 16.477668 3.304071 24.803026 15.668939
2004-06-01 07:32:41 51°13.527 2°56.27 16.469664 3.380328 25.507176 15.500392
2004-06-01 07:32:45 51°13.528 2°56.271 16.48533 3.43226 25.987074 15.365554
2004-06-01 07:32:52 51°13.528 2°56.271 16.49729 3.458807 26.255689 14.994751
2004-06-01 07:32:56 51°13.528 2°56.271 16.532221 3.483775 26.499586 14.556529
2004-06-01 07:33:01 51°13.527 2°56.272 16.548681 3.49705 26.63829 14.354272
2004-06-01 07:33:05 51°13.526 2°56.272 16.548681 3.49705 26.63829 14.354272
2004-06-01 07:33:11 51°13.524 2°56.273 16.570749 3.487463 26.568123 14.185725
2004-06-01 07:33:16 51°13.522 2°56.273 16.576063 3.469554 26.416564 13.747503
2004-06-01 07:33:20 51°13.52 2°56.273 16.556463 3.443955 26.200345 13.578956
2004-06-01 07:33:25 51°13.518 2°56.274 16.527117 3.414881 25.945612 13.511537
2004-06-01 07:33:32 51°13.517 2°56.274 16.503843 3.381911 25.659611 13.3767
2004-06-01 07:33:36 51°13.517 2°56.274 16.503843 3.381911 25.659611 13.3767
2004-06-01 07:33:41 51°13.518 2°56.274 16.456081 3.366111 25.521877 13.309281
2004-06-01 07:33:45 51°13.52 2°56.273 16.43108 3.351049 25.397445 13.174443
2004-06-01 07:33:52 51°13.524 2°56.27 16.38382 3.346625 25.36594 13.039606
2004-06-01 07:33:56 51°13.528 2°56.266 16.364592 3.361477 25.503561 13.005896
2004-06-01 07:34:01 51°13.532 2°56.261 16.368003 3.385493 25.724555 12.668802
2004-06-01 07:34:05 51°13.534 2°56.256 16.368003 3.385493 25.724555 12.668802
2004-06-01 07:34:11 51°13.538 2°56.249 16.369709 3.421413 26.049253 12.264289
2004-06-01 07:34:16 51°13.54 2°56.243 16.407603 3.453542 26.343447 12.028324
2004-06-01 07:34:21 51°13.542 2°56.237 16.394093 3.475244 26.551743 11.724939
2004-06-01 07:34:25 51°13.543 2°56.232 16.387103 3.487465 26.665496 11.522683
2004-06-01 07:34:31 51°13.545 2°56.225 16.389575 3.492522 26.712269 11.522683
2004-06-01 07:34:36 51°13.547 2°56.219 16.389575 3.492522 26.712269 11.522683
2004-06-01 07:34:41 51°13.548 2°56.213 16.370903 3.484093 26.637435 11.219298
2004-06-01 07:34:45 51°13.549 2°56.208 16.391195 3.454807 26.385672 11.11817
2004-06-01 07:34:51 51°13.551 2°56.201 16.414208 3.45428 26.381704 11.017042
2004-06-01 07:34:55 51°13.552 2°56.197 16.443517 3.458389 26.420346 10.983332
2004-06-01 07:35:01 51°13.554 2°56.19 16.450247 3.463972 26.473927 11.050751
2004-06-01 07:35:05 51°13.554 2°56.185 16.450247 3.463972 26.473927 11.050751
2004-06-01 07:35:11 51°13.556 2°56.178 16.463916 3.468397 26.51138 10.983332
2004-06-01 07:35:16 51°13.557 2°56.172 16.468897 3.443008 26.288818 11.017042
2004-06-01 07:35:21 51°13.558 2°56.167 16.450673 3.410142 25.998709 11.017042
2004-06-01 07:35:25 51°13.559 2°56.162 16.450758 3.389391 25.814654 11.08446
2004-06-01 07:35:31 51°13.56 2°56.155 16.446584 3.37812 25.711647 10.949623
2004-06-01 07:35:35 51°13.561 2°56.151 16.446584 3.37812 25.711647 10.949623
2004-06-01 07:35:41 51°13.563 2°56.144 16.436021 3.359266 25.549176 10.949623
2004-06-01 07:35:45 51°13.564 2°56.14 16.428566 3.362426 25.576703 10.814785
2004-06-01 07:35:51 51°13.566 2°56.134 16.414677 3.368851 25.63219 10.679947
2004-06-01 07:35:56 51°13.567 2°56.129 16.40837 3.369062 25.637735 10.54511
2004-06-01 07:36:01 51°13.568 2°56.124 16.399676 3.369378 25.643697 10.443982
2004-06-01 07:36:06 51°13.569 2°56.119 16.399676 3.369378 25.643697 10.443982
2004-06-01 07:36:11 51°13.571 2°56.114 16.391365 3.342203 25.415952 10.342853
2004-06-01 07:36:15 51°13.572 2°56.11 16.372779 3.374328 25.696257 10.208016
2004-06-01 07:36:23 51°13.574 2°56.103 16.367534 3.37654 25.718682 10.140597
2004-06-01 07:36:27 51°13.575 2°56.099 16.358494 3.37949 25.750174 10.005759
2004-06-01 07:36:32 51°13.576 2°56.095 16.345572 3.394763 25.884224 9.904631
2004-06-01 07:36:37 51°13.578 2°56.091 16.344804 3.405824 25.986666 9.870922
2004-06-01 07:36:41 51°13.579 2°56.087 16.344804 3.405824 25.986666 9.870922
2004-06-01 07:36:47 51°13.581 2°56.082 16.347576 3.404033 25.977289 9.803503
2004-06-01 07:36:52 51°13.582 2°56.079 16.349495 3.409827 26.034385 9.736084
2004-06-01 07:36:58 51°13.584 2°56.074 16.335419 3.400873 25.964959 9.702375
2004-06-01 07:37:02 51°13.585 2°56.071 16.326204 3.414883 26.087703 9.702375
2004-06-01 07:37:08 51°13.587 2°56.067 16.324583 3.409195 26.042972 9.702375
2004-06-01 07:37:12 51°13.588 2°56.064 16.324583 3.409195 26.042972 9.702375
2004-06-01 07:37:18 51°13.59 2°56.06 16.323175 3.411407 26.0636 9.702375
2004-06-01 07:37:21 51°13.591 2°56.058 16.318567 3.417622 26.118091 9.634956
2004-06-01 07:37:28 51°13.593 2°56.053 16.30871 3.422152 26.16269 9.702375
2004-06-01 07:37:32 51°13.594 2°56.051 16.28613 3.41836 26.134458 9.567537
2004-06-01 07:37:38 51°13.595 2°56.048 16.27597 3.422889 26.174729 11.859777
2004-06-01 07:37:42 51°13.596 2°56.046 16.27597 3.422889 26.174729 11.859777
2004-06-01 07:37:48 51°13.597 2°56.043 16.271999 3.42015 26.154926 11.859777
2004-06-01 07:37:52 51°13.597 2°56.042 16.259487 3.429526 26.23673 11.859777
2004-06-01 07:37:57 51°13.598 2°56.04 16.252568 3.439323 26.327015 11.724939
2004-06-01 07:38:02 51°13.599 2°56.039 16.237789 3.446486 26.397004 11.590101
2004-06-01 07:38:08 51°13.6 2°56.037 16.230141 3.46608 26.572584 11.556392
2004-06-01 07:38:12 51°13.601 2°56.035 16.230141 3.46608 26.572584 11.556392
2004-06-01 07:38:18 51°13.602 2°56.033 16.217835 3.481883 26.712733 11.387845
2004-06-01 07:38:23 51°13.602 2°56.031 16.21963 3.504744 26.915079 11.421554
2004-06-01 07:38:28 51°13.603 2°56.029 16.2101 3.514542 27.003466 11.253007
2004-06-01 07:38:33 51°13.604 2°56.027 16.21322 3.527606 27.121255 11.387845
2004-06-01 07:38:38 51°13.605 2°56.025 16.215741 3.519705 27.060452 11.219298
2004-06-01 07:38:42 51°13.606 2°56.024 16.215741 3.519705 27.060452 11.219298
2004-06-01 07:38:48 51°13.607 2°56.022 16.203604 3.529187 27.146789 11.253007
2004-06-01 07:38:52 51°13.608 2°56.02 16.199714 3.537405 27.22241 11.185589
2004-06-01 07:38:58 51°13.609 2°56.018 16.191037 3.548573 27.320228 11.151879
2004-06-01 07:39:03 51°13.61 2°56.017 16.190438 3.547835 27.31596 11.11817
2004-06-01 07:39:08 51°13.61 2°56.016 16.186762 3.541935 27.267124 11.151879
2004-06-01 07:39:12 51°13.611 2°56.015 16.186762 3.541935 27.267124 11.151879
2004-06-01 07:39:18 51°13.611 2°56.014 16.184368 3.547414 27.319454 11.11817
2004-06-01 07:39:23 51°13.611 2°56.014 16.185137 3.550364 27.348699 11.08446
2004-06-01 07:39:28 51°13.611 2°56.013 16.184453 3.574281 27.554577 11.050751
2004-06-01 07:39:32 51°13.611 2°56.012 16.17479 3.592615 27.714447 11.017042
2004-06-01 07:39:38 51°13.611 2°56.012 16.170044 3.584712 27.649923 10.983332
2004-06-01 07:39:42 51°13.611 2°56.012 16.170044 3.584712 27.649923 10.983332
2004-06-01 07:39:48 51°13.612 2°56.011 16.168034 3.596935 27.756564 11.017042
2004-06-01 07:39:53 51°13.612 2°56.011 16.156914 3.59114 27.708511 10.983332
2004-06-01 07:39:58 51°13.613 2°56.011 16.144681 3.600518 27.791872 11.017042
2004-06-01 07:40:02 51°13.613 2°56.01 16.129921 3.597778 27.77048 10.983332
2004-06-01 07:40:08 51°13.613 2°56.009 16.123588 3.607367 27.857244 10.882204
2004-06-01 07:40:12 51°13.614 2°56.008 16.123588 3.607367 27.857244 10.882204
2004-06-01 07:40:18 51°13.614 2°56.007 16.128723 3.602625 27.819729 10.882204
2004-06-01 07:40:22 51°13.614 2°56.006 16.139077 3.626755 28.032769 10.848494
2004-06-01 07:40:28 51°13.614 2°56.004 16.140275 3.643509 28.185411 10.781076
2004-06-01 07:40:33 51°13.614 2°56.003 16.137237 3.644879 28.202938 10.713657
2004-06-01 07:40:38 51°13.615 2°56.003 16.134285 3.650043 28.249908 10.679947
2004-06-01 07:40:42 51°13.615 2°56.003 16.134285 3.650043 28.249908 10.679947
2004-06-01 07:40:48 51°13.615 2°56.002 16.130777 3.654258 28.286643 10.646238
2004-06-01 07:40:52 51°13.615 2°56.001 16.126797 3.645195 28.206702 10.713657
2004-06-01 07:40:58 51°13.615 2°56.001 16.121063 3.613373 27.932565 10.713657
2004-06-01 07:41:02 51°13.615 2°56 16.123759 3.641191 28.173889 10.679947
2004-06-01 07:41:08 51°13.616 2°55.999 16.123417 3.62391 28.026598 10.679947
2004-06-01 07:41:12 51°13.616 2°55.998 16.123417 3.62391 28.026598 10.679947
2004-06-01 07:41:18 51°13.617 2°55.996 16.125556 3.640875 28.174842 10.646238
2004-06-01 07:41:22 51°13.617 2°55.994 16.122048 3.629706 28.081555 10.612529
2004-06-01 07:41:28 51°13.619 2°55.99 16.119608 3.623805 28.03247 10.578819
2004-06-01 07:41:32 51°13.62 2°55.987 16.120208 3.657103 28.320042 10.578819
2004-06-01 07:41:38 51°13.622 2°55.982 16.118924 3.640032 28.173367 10.578819
2004-06-01 07:41:42 51°13.624 2°55.978 16.118924 3.640032 28.173367 10.578819
2004-06-01 07:41:48 51°13.627 2°55.971 16.115158 3.665744 28.394854 10.612529
2004-06-01 07:41:52 51°13.629 2°55.966 16.108395 3.667009 28.407841 10.578819
2004-06-01 07:41:58 51°13.632 2°55.957 16.102189 3.667852 28.416148 10.54511
2004-06-01 07:42:00 51°13.634 2°55.954 16.096924 3.668168 28.419925 10.646238
2004-06-01 07:42:08 51°13.639 2°55.941 16.100562 3.669222 28.428988 10.612529
2004-06-01 07:42:13 51°13.642 2°55.934 16.100562 3.669222 28.428988 10.612529
2004-06-01 07:42:18 51°13.646 2°55.926 16.098765 3.674912 28.480587 10.612529
2004-06-01 07:42:23 51°13.649 2°55.918 16.099235 3.680708 28.534177 10.5114
2004-06-01 07:42:28 51°13.652 2°55.911 16.098551 3.685345 28.577812 10.410272
2004-06-01 07:42:33 51°13.655 2°55.903 16.101162 3.688401 28.607321 10.54511
2004-06-01 07:42:37 51°13.658 2°55.897 16.106255 3.687031 28.596056 10.5114
2004-06-01 07:42:40 51°13.659 2°55.892 16.106255 3.687031 28.596056 10.5114
2004-06-01 07:42:48 51°13.665 2°55.88 16.108952 3.682394 28.557194 10.5114
2004-06-01 07:42:52 51°13.668 2°55.874 16.11687 3.676388 28.505483 10.646238
2004-06-01 07:42:58 51°13.672 2°55.866 16.127525 3.6688 28.439652 10.814785
2004-06-01 07:43:02 51°13.674 2°55.859 16.137665 3.660897 28.371125 10.882204
2004-06-01 07:43:08 51°13.679 2°55.85 16.142414 3.6492 28.267374 11.08446
2004-06-01 07:43:12 51°13.682 2°55.844 16.142414 3.6492 28.267374 11.08446
2004-06-01 07:43:18 51°13.686 2°55.834 16.148702 3.636239 28.15388 11.151879
2004-06-01 07:43:21 51°13.689 2°55.829 16.156914 3.620749 28.015623 11.286717
2004-06-01 07:43:28 51°13.695 2°55.816 16.160678 3.604628 27.872084 11.590101
2004-06-01 07:43:32 51°13.698 2°55.808 16.16457 3.590614 27.747272 11.758648
2004-06-01 07:43:38 51°13.704 2°55.795 16.165211 3.581131 27.661895 11.927195
2004-06-01 07:43:43 51°13.709 2°55.784 16.165211 3.581131 27.661895 11.927195
2004-06-01 07:43:48 51°13.715 2°55.773 16.169231 3.563114 27.503011 12.062033
2004-06-01 07:43:52 51°13.72 2°55.764 16.171925 3.548679 27.374932 12.196871
2004-06-01 07:43:58 51°13.728 2°55.75 16.190695 3.538459 27.284511 12.297999
2004-06-01 07:44:03 51°13.735 2°55.739 16.209545 3.532243 27.228858 12.365418
2004-06-01 07:44:08 51°13.742 2°55.727 16.216767 3.527818 27.189538 12.500255
2004-06-01 07:44:13 51°13.75 2°55.716 16.216767 3.527818 27.189538 12.500255
2004-06-01 07:44:18 51°13.759 2°55.705 16.213348 3.522234 27.140333 12.500255
2004-06-01 07:44:22 51°13.766 2°55.697 16.208049 3.508327 27.01659 12.533965
2004-06-01 07:44:28 51°13.777 2°55.685 16.209075 3.48378 26.797285 12.76993
2004-06-01 07:44:32 51°13.784 2°55.677 16.203903 3.467451 26.64929 12.972187
2004-06-01 07:44:36 51°13.792 2°55.67 16.205827 3.463869 26.61584 13.107024
2004-06-01 07:44:43 51°13.806 2°55.658 16.205827 3.463869 26.61584 13.107024
2004-06-01 07:44:48 51°13.816 2°55.65 16.209075 3.466924 26.641841 13.208153
2004-06-01 07:44:52 51°13.825 2°55.644 16.208476 3.468504 26.656279 13.309281
2004-06-01 07:44:58 51°13.837 2°55.636 16.218434 3.471138 26.678204 13.309281
2004-06-01 07:45:02 51°13.846 2°55.63 16.210271 3.472613 26.692245 13.410409
2004-06-01 07:45:08 51°13.859 2°55.622 16.200484 3.472402 26.690452 13.578956
2004-06-01 07:45:13 51°13.87 2°55.616 16.200484 3.472402 26.690452 13.578956
2004-06-01 07:45:18 51°13.881 2°55.609 16.195354 3.470717 26.676101 13.646375
2004-06-01 07:45:23 51°13.893 2°55.603 16.190438 3.460077 26.583568 13.814922
2004-06-01 07:45:28 51°13.904 2°55.597 16.196081 3.466398 26.635875 13.949759
2004-06-01 07:45:32 51°13.913 2°55.592 16.200826 3.485255 26.799409 14.050888
2004-06-01 07:45:38 51°13.926 2°55.584 16.192619 3.506009 26.979781 13.983469
2004-06-01 07:45:42 51°13.935 2°55.579 16.192619 3.506009 26.979781 13.983469
2004-06-01 07:45:48 51°13.949 2°55.571 16.190182 3.525289 27.146259 14.017178
2004-06-01 07:45:52 51°13.958 2°55.566 16.195867 3.537511 27.252105 13.983469
2004-06-01 07:45:58 51°13.971 2°55.558 16.17881 3.542462 27.292875 13.848631
2004-06-01 07:46:02 51°13.98 2°55.554 16.175603 3.555422 27.405617 13.814922
2004-06-01 07:46:08 51°13.994 2°55.546 16.176073 3.565431 27.493724 13.713794
2004-06-01 07:46:13 51°14.006 2°55.54 16.176073 3.565431 27.493724 13.713794
2004-06-01 07:46:18 51°14.017 2°55.534 16.172139 3.574598 27.572626 13.680084
2004-06-01 07:46:22 51°14.027 2°55.529 16.169958 3.58819 27.691489 13.882341
2004-06-01 07:46:28 51°14.04 2°55.521 16.165211 3.600623 27.801549 14.253144
2004-06-01 07:46:32 51°14.049 2°55.515 16.176201 3.606734 27.856484 14.522819
2004-06-01 07:46:38 51°14.063 2°55.504 16.183855 3.613162 27.913634 14.792494
2004-06-01 07:46:42 51°14.072 2°55.496 16.183855 3.613162 27.913634 14.792494
2004-06-01 07:46:48 51°14.085 2°55.483 16.198005 3.619906 27.972999 15.129589
2004-06-01 07:46:52 51°14.094 2°55.475 16.213391 3.627914 28.044273 15.298136
2004-06-01 07:46:58 51°14.107 2°55.46 16.22527 3.627493 28.040137 15.432973
2004-06-01 07:47:02 51°14.116 2°55.45 16.237618 3.617377 27.95028 15.500392
2004-06-01 07:47:08 51°14.129 2°55.435 16.248297 3.601045 27.805159 15.63523
2004-06-01 07:47:12 51°14.138 2°55.425 16.248297 3.601045 27.805159 15.63523
2004-06-01 07:47:18 51°14.151 2°55.408 16.254106 3.586504 27.673464 15.702648
2004-06-01 07:47:22 51°14.16 2°55.397 16.254276 3.564377 27.475535 15.770067
2004-06-01 07:47:28 51°14.173 2°55.38 16.248169 3.542778 27.283423 15.972324
2004-06-01 07:47:32 51°14.182 2°55.369 16.240736 3.528976 27.157574 15.904905
2004-06-01 07:47:38 51°14.195 2°55.351 16.232619 3.515491 27.03657 15.972324
2004-06-01 07:47:42 51°14.204 2°55.339 16.232619 3.515491 27.03657 15.972324
2004-06-01 07:47:48 51°14.216 2°55.321 16.226253 3.509485 26.981896 16.039742
2004-06-01 07:47:52 51°14.225 2°55.309 16.223989 3.513173 27.011811 15.770067
2004-06-01 07:47:58 51°14.237 2°55.289 16.217964 3.524446 27.1119 15.668939
2004-06-01 07:48:03 51°14.247 2°55.273 16.208263 3.535403 27.207857 15.466683
2004-06-01 07:48:08 51°14.256 2°55.257 16.20869 3.545201 27.295504 15.264426
2004-06-01 07:48:12 51°14.264 2°55.243 16.20869 3.545201 27.295504 15.264426
2004-06-01 07:48:18 51°14.275 2°55.222 16.199415 3.555632 27.387594 15.163298
2004-06-01 07:48:23 51°14.285 2°55.204 16.193944 3.563323 27.456341 15.095879
2004-06-01 07:48:26 51°14.29 2°55.194 16.185693 3.573333 27.547493 14.792494
2004-06-01 07:48:33 51°14.304 2°55.168 16.177698 3.581551 27.620323 14.590238
2004-06-01 07:48:37 51°14.311 2°55.154 16.167179 3.589981 27.696022 14.4554
2004-06-01 07:48:41 51°14.319 2°55.139 16.167179 3.589981 27.696022 14.4554
2004-06-01 07:48:48 51°14.334 2°55.113 16.157813 3.600096 27.787232 14.253144
2004-06-01 07:48:52 51°14.342 2°55.098 16.153963 3.613899 27.910624 14.017178
2004-06-01 07:48:58 51°14.355 2°55.076 16.139932 3.62549 28.015679 13.848631
2004-06-01 07:49:02 51°14.364 2°55.062 16.122005 3.637081 28.120306 13.511537
2004-06-01 07:49:08 51°14.378 2°55.04 16.115029 3.646038 28.200833 13.477828
2004-06-01 07:49:12 51°14.387 2°55.026 16.115029 3.646038 28.200833 13.477828
2004-06-01 07:49:18 51°14.401 2°55.004 16.097609 3.657208 28.302521 13.309281
2004-06-01 07:49:23 51°14.412 2°54.985 16.087805 3.67175 28.433283 13.208153
2004-06-01 07:49:28 51°14.423 2°54.965 16.069564 3.691351 28.610361 13.073315
2004-06-01 07:49:32 51°14.431 2°54.948 16.053974 3.711058 28.788595 13.005896
2004-06-01 07:49:37 51°14.44 2°54.925 16.025568 3.733084 28.988697 12.702512
2004-06-01 07:49:42 51°14.448 2°54.9 16.025568 3.733084 28.988697 12.702512
2004-06-01 07:49:48 51°14.457 2°54.869 16.01464 3.75511 29.189664 12.601383
2004-06-01 07:49:52 51°14.461 2°54.847 16.013783 3.772395 29.348306 12.432836
2004-06-01 07:49:58 51°14.467 2°54.814 16.013568 3.798954 29.590211 12.23058
2004-06-01 07:50:03 51°14.471 2°54.786 16.01044 3.833104 29.900072 12.028324
2004-06-01 07:50:08 51°14.473 2°54.757 16.005896 3.861247 30.158439 11.859777
2004-06-01 07:50:12 51°14.474 2°54.733 16.005896 3.861247 30.158439 11.859777
2004-06-01 07:50:18 51°14.474 2°54.698 16.00521 3.877691 30.310431 11.556392
2004-06-01 07:50:20 51°14.473 2°54.686 16.000109 3.888021 30.404277 11.354136
2004-06-01 07:50:28 51°14.469 2°54.639 15.996165 3.891289 30.434424 11.387845
2004-06-01 07:50:33 51°14.465 2°54.61 15.999809 3.899721 30.51069 11.320426
2004-06-01 07:50:38 51°14.46 2°54.581 15.990892 3.905414 30.563122 11.387845
2004-06-01 07:50:42 51°14.455 2°54.559 15.990892 3.905414 30.563122 11.387845
2004-06-01 07:50:48 51°14.447 2°54.525 15.987504 3.912793 30.6297 11.354136
2004-06-01 07:50:52 51°14.441 2°54.503 15.981416 3.919434 30.691022 11.320426
2004-06-01 07:50:58 51°14.432 2°54.469 15.974083 3.923018 30.724568 11.421554
2004-06-01 07:51:02 51°14.426 2°54.447 15.972324 3.927023 30.76065 11.387845
2004-06-01 07:51:06 51°14.419 2°54.425 15.96113 3.931029 30.799044 11.286717
2004-06-01 07:51:12 51°14.409 2°54.392 15.96113 3.931029 30.799044 11.286717
2004-06-01 07:51:18 51°14.398 2°54.36 15.96143 3.935562 30.842053 11.286717
2004-06-01 07:51:22 51°14.391 2°54.339 15.947832 3.937671 30.863339 11.253007
2004-06-01 07:51:28 51°14.379 2°54.308 15.94101 3.941149 30.899485 11.286717
2004-06-01 07:51:32 51°14.372 2°54.287 15.937149 3.944734 30.935412 11.185589
2004-06-01 07:51:38 51°14.36 2°54.255 15.927365 3.94642 30.954779 11.151879
2004-06-01 07:51:41 51°14.354 2°54.24 15.927365 3.94642 30.954779 11.151879
2004-06-01 07:51:48 51°14.34 2°54.203 15.931656 3.950321 30.992915 11.11817
2004-06-01 07:51:52 51°14.332 2°54.182 15.925906 3.955487 31.045031 11.08446
2004-06-01 07:51:58 51°14.321 2°54.15 15.918266 3.95886 31.079762 11.017042
2004-06-01 07:52:03 51°14.31 2°54.124 15.917665 3.961812 31.108489 10.983332
2004-06-01 07:52:08 51°14.301 2°54.097 15.909381 3.962866 31.121792 10.882204
2004-06-01 07:52:13 51°14.292 2°54.07 15.909381 3.962866 31.121792 10.882204
2004-06-01 07:52:18 51°14.282 2°54.043 15.90805 3.964764 31.140142 10.915913
2004-06-01 07:52:23 51°14.273 2°54.016 15.907235 3.965291 31.147673 10.848494
2004-06-01 07:52:28 51°14.264 2°53.989 15.900194 3.970562 31.198478 10.781076
2004-06-01 07:52:33 51°14.255 2°53.961 15.896588 3.974568 31.236473 10.713657
2004-06-01 07:52:38 51°14.246 2°53.934 15.891092 3.977625 31.266174 10.612529
2004-06-01 07:52:43 51°14.237 2°53.907 15.891092 3.977625 31.266174 10.612529
2004-06-01 07:52:48 51°14.228 2°53.879 15.891006 3.979523 31.285139 10.578819
2004-06-01 07:52:53 51°14.219 2°53.852 15.888301 3.981737 31.307466 10.578819
2004-06-01 07:52:58 51°14.21 2°53.824 15.887228 3.983634 31.327616 10.54511
2004-06-01 07:53:02 51°14.202 2°53.803 15.881602 3.985743 31.350208 10.443982
2004-06-01 07:53:08 51°14.191 2°53.769 15.879928 3.987113 31.366339 10.443982
2004-06-01 07:53:12 51°14.184 2°53.748 15.879928 3.987113 31.366339 10.443982
2004-06-01 07:53:18 51°14.173 2°53.715 15.881388 3.988273 31.377682 10.376563
2004-06-01 07:53:23 51°14.163 2°53.687 15.882805 3.988062 31.378189 10.342853
2004-06-01 07:53:28 51°14.154 2°53.66 15.878296 3.987851 31.379285 10.376563
2004-06-01 07:53:33 51°14.145 2°53.632 15.879112 3.988273 31.384161 10.376563
2004-06-01 07:53:38 51°14.136 2°53.605 15.879198 3.988273 31.386517 10.376563
2004-06-01 07:53:42 51°14.129 2°53.583 15.879198 3.988273 31.386517 10.376563
2004-06-01 07:53:48 51°14.118 2°53.549 15.878296 3.98743 31.378533 10.443982
2004-06-01 07:53:52 51°14.111 2°53.527 15.874645 3.987008 31.376603 10.477691
2004-06-01 07:53:57 51°14.102 2°53.499 15.868589 3.986059 31.368283 10.477691
2004-06-01 07:54:02 51°14.092 2°53.472 15.863349 3.985005 31.357862 10.477691
2004-06-01 07:54:07 51°14.083 2°53.444 15.860213 3.984478 31.353241 10.54511
2004-06-01 07:54:12 51°14.074 2°53.417 15.860213 3.984478 31.353241 10.54511
2004-06-01 07:54:16 51°14.067 2°53.395 15.859182 3.984583 31.35652 10.578819
2004-06-01 07:54:21 51°14.057 2°53.367 15.854199 3.984478 31.360306 10.612529
2004-06-01 07:54:28 51°14.044 2°53.328 15.848571 3.9849 31.365182 10.679947
2004-06-01 07:54:33 51°14.035 2°53.301 15.848055 3.984478 31.364429 10.679947
2004-06-01 07:54:37 51°14.028 2°53.279 15.840321 3.985005 31.371998 10.747366
2004-06-01 07:54:42 51°14.019 2°53.251 15.840321 3.985005 31.371998 10.747366
2004-06-01 07:54:47 51°14.01 2°53.223 15.840364 3.985533 31.379569 10.713657
2004-06-01 07:54:52 51°14.001 2°53.195 15.839591 3.985954 31.388575 10.747366
2004-06-01 07:54:58 51°13.99 2°53.162 15.83495 3.985849 31.38942 10.781076
2004-06-01 07:55:02 51°13.983 2°53.14 15.832501 3.985954 31.393294 10.781076
2004-06-01 07:55:08 51°13.971 2°53.107 15.828719 3.986376 31.399945 10.814785
2004-06-01 07:55:13 51°13.961 2°53.08 15.828719 3.986376 31.399945 10.814785
2004-06-01 07:55:16 51°13.954 2°53.065 15.829965 3.986482 31.402051 10.781076
2004-06-01 07:55:22 51°13.942 2°53.033 15.825237 3.987114 31.410555 10.814785
2004-06-01 07:55:28 51°13.929 2°53.001 15.826269 3.987009 31.411401 10.781076
2004-06-01 07:55:33 51°13.918 2°52.975 15.828805 3.986903 31.414019 10.814785
2004-06-01 07:55:36 51°13.912 2°52.959 15.827816 3.987114 31.417642 10.848494
2004-06-01 07:55:42 51°13.899 2°52.928 15.827816 3.987114 31.417642 10.848494
2004-06-01 07:55:48 51°13.886 2°52.896 15.827086 3.986587 31.414786 10.814785
2004-06-01 07:55:52 51°13.878 2°52.875 15.828547 3.986165 31.411674 10.848494
2004-06-01 07:55:57 51°13.867 2°52.848 15.831684 3.985638 31.408227 10.848494
2004-06-01 07:56:02 51°13.857 2°52.822 15.828031 3.9849 31.399976 10.781076
2004-06-01 07:56:08 51°13.844 2°52.79 15.825624 3.983635 31.39005 10.848494
2004-06-01 07:56:12 51°13.836 2°52.769 15.825624 3.983635 31.39005 10.848494
2004-06-01 07:56:18 51°13.823 2°52.737 15.823819 3.983319 31.387273 10.848494
2004-06-01 07:56:22 51°13.814 2°52.716 15.822659 3.982687 31.38054 10.882204
2004-06-01 07:56:28 51°13.802 2°52.684 15.825538 3.982476 31.379869 10.882204
2004-06-01 07:56:32 51°13.793 2°52.663 15.822659 3.982581 31.380204 10.915913
2004-06-01 07:56:38 51°13.781 2°52.631 15.821068 3.982476 31.380459 10.915913
2004-06-01 07:56:42 51°13.772 2°52.61 15.821068 3.982476 31.380459 10.915913
2004-06-01 07:56:48 51°13.76 2°52.578 15.820939 3.982581 31.383155 10.915913
2004-06-01 07:56:52 51°13.752 2°52.557 15.819822 3.982265 31.379198 10.915913
2004-06-01 07:56:58 51°13.739 2°52.526 15.822702 3.982476 31.38282 10.915913
2004-06-01 07:57:03 51°13.728 2°52.499 15.821154 3.982476 31.382229 10.882204
2004-06-01 07:57:08 51°13.718 2°52.473 15.822573 3.982581 31.383745 10.983332
2004-06-01 07:57:12 51°13.709 2°52.451 15.822573 3.982581 31.383745 10.983332
2004-06-01 07:57:18 51°13.697 2°52.419 15.820553 3.98237 31.383665 10.983332
2004-06-01 07:57:22 51°13.689 2°52.398 15.823647 3.982265 31.382149 10.949623
2004-06-01 07:57:28 51°13.677 2°52.366 15.821455 3.981738 31.377521 10.915913
2004-06-01 07:57:33 51°13.667 2°52.339 15.821541 3.981632 31.377185 10.949623
2004-06-01 07:57:37 51°13.659 2°52.317 15.822487 3.981632 31.377185 10.949623
2004-06-01 07:57:42 51°13.649 2°52.29 15.822487 3.981632 31.377185 10.949623
2004-06-01 07:57:48 51°13.637 2°52.257 15.816297 3.981527 31.376259 10.983332
2004-06-01 07:57:52 51°13.629 2°52.235 15.816254 3.981632 31.376595 10.983332
2004-06-01 07:57:58 51°13.617 2°52.203 15.815696 3.981105 31.373147 11.017042
2004-06-01 07:58:02 51°13.609 2°52.181 15.817329 3.981211 31.374073 11.017042
2004-06-01 07:58:08 51°13.597 2°52.149 15.817544 3.981738 31.381062 11.017042
2004-06-01 07:58:13 51°13.587 2°52.122 15.817544 3.981738 31.381062 11.017042
2004-06-01 07:58:16 51°13.581 2°52.106 15.817458 3.982054 31.384429 11.017042
2004-06-01 07:58:22 51°13.569 2°52.073 15.814363 3.982792 31.3915 10.949623
2004-06-01 07:58:28 51°13.557 2°52.04 15.813546 3.983214 31.395204 11.017042
2004-06-01 07:58:33 51°13.547 2°52.013 15.815094 3.983319 31.396129 11.017042
2004-06-01 07:58:36 51°13.541 2°51.997 15.815051 3.983425 31.397055 11.050751
2004-06-01 07:58:42 51°13.529 2°51.964 15.815051 3.983425 31.397055 11.050751
2004-06-01 07:58:47 51°13.519 2°51.937 15.814922 3.983108 31.395459 11.017042
2004-06-01 07:58:52 51°13.509 2°51.91 15.816254 3.982792 31.393272 11.050751
2004-06-01 07:58:57 51°13.499 2°51.883 15.81561 3.982476 31.391085 10.983332
2004-06-01 07:59:02 51°13.489 2°51.856 15.814879 3.982476 31.390494 11.050751
2004-06-01 07:59:08 51°13.477 2°51.823 15.818146 3.98237 31.390159 11.050751
2004-06-01 07:59:12 51°13.469 2°51.801 15.818146 3.98237 31.390159 11.050751
2004-06-01 07:59:18 51°13.458 2°51.768 15.816555 3.982581 31.392011 11.050751
2004-06-01 07:59:22 51°13.45 2°51.747 15.81475 3.982792 31.393272 11.017042
2004-06-01 07:59:28 51°13.438 2°51.714 15.812558 3.982898 31.394198 11.017042
2004-06-01 07:59:33 51°13.428 2°51.687 15.814148 3.983108 31.396049 11.017042
2004-06-01 07:59:38 51°13.418 2°51.66 15.815137 3.983952 31.402275 11.050751
2004-06-01 07:59:42 51°13.41 2°51.638 15.815137 3.983952 31.402275 11.050751
2004-06-01 07:59:48 51°13.398 2°51.605 15.815996 3.984901 31.41179 11.017042
2004-06-01 07:59:53 51°13.388 2°51.579 15.819994 3.985849 31.420715 11.017042
2004-06-01 07:59:58 51°13.378 2°51.551 15.819693 3.985639 31.419454 10.983332
2004-06-01 08:00:02 51°13.371 2°51.53 15.820896 3.984795 31.411455 11.050751
2004-06-01 08:00:08 51°13.359 2°51.497 15.818489 3.984373 31.40716 11.017042
2004-06-01 08:00:13 51°13.349 2°51.47 15.818489 3.984373 31.40716 11.017042
2004-06-01 08:00:18 51°13.339 2°51.443 15.820123 3.983952 31.403457 11.08446
2004-06-01 08:00:20 51°13.335 2°51.432 15.820811 3.983425 31.397646 11.050751
2004-06-01 08:00:28 51°13.319 2°51.389 15.823303 3.982792 31.39091 11.08446
2004-06-01 08:00:32 51°13.311 2°51.367 15.82124 3.982054 31.384429 11.050751
2004-06-01 08:00:38 51°13.299 2°51.335 15.819392 3.981632 31.379546 11.08446
2004-06-01 08:00:42 51°13.292 2°51.313 15.819392 3.981632 31.379546 11.08446
2004-06-01 08:00:48 51°13.279 2°51.281 15.823991 3.981 31.374582 11.08446
2004-06-01 08:00:53 51°13.269 2°51.254 15.81922 3.980578 31.370879 11.11817
2004-06-01 08:00:58 51°13.26 2°51.227 15.821971 3.980157 31.367176 11.050751
2004-06-01 08:01:02 51°13.252 2°51.205 15.82455 3.979629 31.362548 11.08446
2004-06-01 08:01:08 51°13.24 2°51.173 15.821326 3.979629 31.361368 11.050751
2004-06-01 08:01:13 51°13.23 2°51.146 15.821326 3.979629 31.361368 11.050751
2004-06-01 08:01:18 51°13.22 2°51.118 15.819994 3.979629 31.361958 11.050751
2004-06-01 08:01:21 51°13.214 2°51.102 15.817458 3.979524 31.360443 11.050751
2004-06-01 08:01:28 51°13.201 2°51.065 15.818489 3.979629 31.360778 11.050751
2004-06-01 08:01:32 51°13.193 2°51.043 15.816082 3.979629 31.361958 11.08446
2004-06-01 08:01:38 51°13.181 2°51.011 15.816254 3.980051 31.366251 11.08446
2004-06-01 08:01:42 51°13.173 2°50.989 15.816254 3.980051 31.366251 11.08446
2004-06-01 08:01:48 51°13.161 2°50.957 15.813245 3.980051 31.366841 11.08446
2004-06-01 08:01:52 51°13.152 2°50.936 15.814664 3.980262 31.369872 11.08446
2004-06-01 08:01:58 51°13.141 2°50.903 15.814707 3.980684 31.374756 11.050751
2004-06-01 08:02:02 51°13.132 2°50.882 15.817759 3.980473 31.372904 11.08446
2004-06-01 08:02:07 51°13.123 2°50.855 15.816727 3.980262 31.371643 11.08446
2004-06-01 08:02:12 51°13.113 2°50.828 15.816727 3.980262 31.371643 11.08446
2004-06-01 08:02:16 51°13.105 2°50.806 15.821197 3.980051 31.370381 11.08446
2004-06-01 08:02:22 51°13.093 2°50.774 15.818489 3.979946 31.368275 11.08446
2004-06-01 08:02:28 51°13.081 2°50.741 15.81806 3.979629 31.365498 11.08446
2004-06-01 08:02:32 51°13.073 2°50.72 15.816942 3.979208 31.361205 11.050751
2004-06-01 08:02:37 51°13.064 2°50.693 15.817071 3.979524 31.363392 11.050751
2004-06-01 08:02:42 51°13.054 2°50.666 15.817071 3.979524 31.363392 11.050751
2004-06-01 08:02:47 51°13.044 2°50.638 15.817587 3.980051 31.366841 11.08446
2004-06-01 08:02:52 51°13.034 2°50.612 15.817544 3.980684 31.372985 11.08446
2004-06-01 08:02:56 51°13.026 2°50.59 15.81561 3.981 31.376352 11.050751
2004-06-01 08:03:02 51°13.014 2°50.558 15.817544 3.981105 31.377278 11.08446
2004-06-01 08:03:08 51°13.002 2°50.526 15.816211 3.981422 31.380055 11.08446
2004-06-01 08:03:13 51°12.991 2°50.5 15.816211 3.981422 31.380055 11.08446
2004-06-01 08:03:18 51°12.981 2°50.474 15.814879 3.981633 31.383088 11.017042
2004-06-01 08:03:23 51°12.969 2°50.448 15.817673 3.981527 31.382162 11.050751
2004-06-01 08:03:28 51°12.958 2°50.422 15.820338 3.981527 31.382752 11.017042
2004-06-01 08:03:32 51°12.95 2°50.401 15.820209 3.981738 31.384014 11.017042
2004-06-01 08:03:38 51°12.937 2°50.37 15.81922 3.981949 31.386456 10.949623
2004-06-01 08:03:42 51°12.928 2°50.349 15.81922 3.981949 31.386456 10.949623
2004-06-01 08:03:48 51°12.915 2°50.318 15.820553 3.981527 31.382752 10.949623
2004-06-01 08:03:52 51°12.906 2°50.297 15.818361 3.981 31.376943 10.983332
2004-06-01 08:03:58 51°12.894 2°50.266 15.81561 3.980578 31.372059 10.983332
2004-06-01 08:04:02 51°12.885 2°50.245 15.814363 3.980367 31.370208 10.983332
2004-06-01 08:04:08 51°12.872 2°50.214 15.812042 3.981 31.375172 11.017042
2004-06-01 08:04:12 51°12.864 2°50.193 15.812042 3.981 31.375172 11.017042
2004-06-01 08:04:18 51°12.85 2°50.162 15.812042 3.982265 31.386871 10.983332
2004-06-01 08:04:23 51°12.839 2°50.136 15.811311 3.984268 31.406234 10.949623
2004-06-01 08:04:28 51°12.828 2°50.111 15.81015 3.985322 31.416085 10.949623
2004-06-01 08:04:32 51°12.819 2°50.091 15.809462 3.986798 31.430823 10.882204
2004-06-01 08:04:38 51°12.805 2°50.06 15.810193 3.987958 31.442193 10.915913
2004-06-01 08:04:42 51°12.796 2°50.04 15.810193 3.987958 31.442193 10.915913
2004-06-01 08:04:48 51°12.782 2°50.01 15.809892 3.988485 31.446232 10.848494
2004-06-01 08:04:52 51°12.772 2°49.99 15.81273 3.989012 31.452047 10.915913
2004-06-01 08:04:58 51°12.759 2°49.96 15.814148 3.989118 31.453565 10.882204
2004-06-01 08:05:02 51°12.749 2°49.94 15.815696 3.989645 31.45938 10.882204
2004-06-01 08:05:08 51°12.736 2°49.91 15.819392 3.98975 31.459714 10.915913
2004-06-01 08:05:12 51°12.726 2°49.89 15.819392 3.98975 31.459714 10.915913
2004-06-01 08:05:17 51°12.715 2°49.864 15.821154 3.989539 31.457862 10.848494
2004-06-01 08:05:22 51°12.703 2°49.839 15.820037 3.983108 31.399003 10.915913
2004-06-01 08:05:28 51°12.69 2°49.809 15.820252 3.987642 31.438231 10.882204
2004-06-01 08:05:32 51°12.681 2°49.789 15.821756 3.986482 31.426862 10.915913
2004-06-01 08:05:38 51°12.668 2°49.758 15.818876 3.985428 31.415238 10.882204
2004-06-01 08:05:42 51°12.66 2°49.736 15.818876 3.985428 31.415238 10.882204
2004-06-01 08:05:48 51°12.648 2°49.705 15.820424 3.984479 31.406314 10.882204
2004-06-01 08:05:52 51°12.64 2°49.683 15.8172 3.983952 31.401094 10.848494
2004-06-01 08:05:58 51°12.628 2°49.651 15.820123 3.983846 31.400168 10.814785
2004-06-01 08:06:02 51°12.62 2°49.63 15.818146 3.984057 31.401429 10.814785
2004-06-01 08:06:08 51°12.608 2°49.598 15.817329 3.984268 31.403871 10.781076
2004-06-01 08:06:12 51°12.6 2°49.576 15.817329 3.984268 31.403871 10.781076
2004-06-01 08:06:18 51°12.588 2°49.544 15.817759 3.984584 31.406649 10.781076
2004-06-01 08:06:22 51°12.58 2°49.523 15.817028 3.984795 31.409682 10.747366
2004-06-01 08:06:28 51°12.568 2°49.491 15.816211 3.984584 31.408421 10.781076
2004-06-01 08:06:32 51°12.56 2°49.47 15.81879 3.984901 31.410017 10.713657
2004-06-01 08:06:38 51°12.549 2°49.438 15.819091 3.984901 31.41179 10.713657
2004-06-01 08:06:42 51°12.541 2°49.417 15.819091 3.984901 31.41179 10.713657
2004-06-01 08:06:47 51°12.531 2°49.39 15.818661 3.984584 31.409012 10.713657
2004-06-01 08:06:52 51°12.521 2°49.364 15.819607 3.984795 31.412046 10.679947
2004-06-01 08:06:56 51°12.513 2°49.343 15.816856 3.984584 31.409012 10.747366
2004-06-01 08:07:02 51°12.501 2°49.31 15.819005 3.984268 31.405643 10.713657
2004-06-01 08:07:08 51°12.489 2°49.279 15.817028 3.984373 31.406569 10.747366
2004-06-01 08:07:12 51°12.481 2°49.258 15.817028 3.984373 31.406569 10.747366
2004-06-01 08:07:18 51°12.469 2°49.226 15.818704 3.984057 31.403201 10.747366
2004-06-01 08:07:21 51°12.463 2°49.21 15.818189 3.984373 31.405979 10.747366
2004-06-01 08:07:28 51°12.449 2°49.173 15.81806 3.984901 31.41179 10.747366
2004-06-01 08:07:32 51°12.441 2°49.151 15.817888 3.985006 31.412716 10.781076
2004-06-01 08:07:38 51°12.429 2°49.12 15.818146 3.985217 31.413977 10.747366
2004-06-01 08:07:42 51°12.421 2°49.098 15.818146 3.985217 31.413977 10.747366
2004-06-01 08:07:48 51°12.41 2°49.067 15.817329 3.985217 31.413977 10.747366
2004-06-01 08:07:52 51°12.402 2°49.045 15.817071 3.985639 31.417681 10.713657
2004-06-01 08:07:58 51°12.39 2°49.014 15.816039 3.985744 31.418606 10.747366
2004-06-01 08:08:02 51°12.382 2°48.993 15.814191 3.985744 31.418606 10.747366
2004-06-01 08:08:08 51°12.37 2°48.961 15.814191 3.985639 31.418272 10.747366
2004-06-01 08:08:12 51°12.362 2°48.94 15.814191 3.985639 31.418272 10.747366
2004-06-01 08:08:18 51°12.35 2°48.909 15.812214 3.985639 31.417681 10.713657
2004-06-01 08:08:22 51°12.342 2°48.887 15.813331 3.985217 31.414568 10.713657
2004-06-01 08:08:28 51°12.33 2°48.856 15.812644 3.984795 31.412637 10.781076
2004-06-01 08:08:32 51°12.322 2°48.835 15.810881 3.984374 31.410115 10.747366
2004-06-01 08:08:38 51°12.31 2°48.803 15.811698 3.984374 31.410706 10.747366
2004-06-01 08:08:40 51°12.307 2°48.792 15.811698 3.984374 31.410706 10.747366
2004-06-01 08:08:48 51°12.291 2°48.75 15.810709 3.984268 31.410371 10.781076
2004-06-01 08:08:52 51°12.283 2°48.729 15.810408 3.984163 31.408854 10.747366
2004-06-01 08:08:58 51°12.271 2°48.697 15.808818 3.984163 31.410036 10.747366
2004-06-01 08:09:02 51°12.264 2°48.676 15.808646 3.984057 31.40911 10.679947
2004-06-01 08:09:08 51°12.252 2°48.645 15.806066 3.98353 31.404479 10.679947
2004-06-01 08:09:13 51°12.242 2°48.619 15.806066 3.98353 31.404479 10.679947
2004-06-01 08:09:18 51°12.232 2°48.592 15.808001 3.983319 31.402627 10.713657
2004-06-01 08:09:22 51°12.224 2°48.571 15.807829 3.982476 31.396401 10.713657
2004-06-01 08:09:28 51°12.212 2°48.54 15.808216 3.983109 31.402548 10.713657
2004-06-01 08:09:32 51°12.204 2°48.519 15.806883 3.982792 31.400951 10.679947
2004-06-01 08:09:38 51°12.192 2°48.487 15.807743 3.982581 31.39969 10.713657
2004-06-01 08:09:41 51°12.186 2°48.472 15.807743 3.982581 31.39969 10.713657
2004-06-01 08:09:48 51°12.173 2°48.435 15.805937 3.982371 31.397247 10.679947
2004-06-01 08:09:52 51°12.165 2°48.414 15.805636 3.982371 31.396656 10.747366
2004-06-01 08:09:58 51°12.153 2°48.382 15.803487 3.982265 31.396912 10.713657
2004-06-01 08:10:02 51°12.145 2°48.361 15.80598 3.982371 31.397247 10.713657
2004-06-01 08:10:08 51°12.133 2°48.33 15.803702 3.982265 31.396912 10.713657
2004-06-01 08:10:13 51°12.124 2°48.303 15.803702 3.982265 31.396912 10.713657
2004-06-01 08:10:18 51°12.114 2°48.277 15.805206 3.98216 31.397758 10.679947
2004-06-01 08:10:23 51°12.104 2°48.251 15.805464 3.982371 31.399611 10.679947
2004-06-01 08:10:28 51°12.094 2°48.225 15.806582 3.982371 31.399611 10.679947
2004-06-01 08:10:33 51°12.084 2°48.198 15.804862 3.982265 31.399866 10.679947
2004-06-01 08:10:38 51°12.075 2°48.172 15.804605 3.982265 31.399866 10.679947
2004-06-01 08:10:42 51°12.067 2°48.151 15.804605 3.982265 31.399866 10.679947
2004-06-01 08:10:48 51°12.055 2°48.119 15.805894 3.982581 31.402054 10.713657
2004-06-01 08:10:52 51°12.047 2°48.099 15.806152 3.982265 31.398684 10.713657
2004-06-01 08:10:58 51°12.036 2°48.067 15.8077 3.982581 31.400872 10.747366
2004-06-01 08:11:02 51°12.027 2°48.047 15.809892 3.982687 31.401207 10.747366
2004-06-01 08:11:08 51°12.016 2°48.015 15.810064 3.982792 31.403315 10.781076
2004-06-01 08:11:12 51°12.008 2°47.994 15.810064 3.982792 31.403315 10.781076
2004-06-01 08:11:17 51°11.998 2°47.968 15.811741 3.982898 31.404241 10.747366
2004-06-01 08:11:22 51°11.988 2°47.942 15.809247 3.983319 31.407355 10.814785
2004-06-01 08:11:28 51°11.976 2°47.911 15.809677 3.983319 31.406764 10.781076
2004-06-01 08:11:32 51°11.968 2°47.89 15.808732 3.98353 31.408025 10.781076
2004-06-01 08:11:37 51°11.959 2°47.864 15.808646 3.983846 31.40903 10.781076
2004-06-01 08:11:42 51°11.949 2°47.837 15.808646 3.983846 31.40903 10.781076
2004-06-01 08:11:48 51°11.938 2°47.806 15.808818 3.984268 31.412144 10.781076
2004-06-01 08:11:53 51°11.929 2°47.779 15.810666 3.984479 31.415178 10.747366
2004-06-01 08:11:58 51°11.919 2°47.753 15.808689 3.98469 31.417622 10.713657
2004-06-01 08:12:02 51°11.913 2°47.731 15.806883 3.985006 31.419809 10.679947
2004-06-01 08:12:08 51°11.902 2°47.699 15.807915 3.985112 31.420144 10.713657
2004-06-01 08:12:12 51°11.895 2°47.677 15.807915 3.985112 31.420144 10.713657
2004-06-01 08:12:18 51°11.885 2°47.644 15.805679 3.985533 31.42444 10.578819
2004-06-01 08:12:22 51°11.878 2°47.623 15.802584 3.985955 31.427553 10.578819
2004-06-01 08:12:28 51°11.867 2°47.59 15.802025 3.986377 31.431849 10.5114
2004-06-01 08:12:33 51°11.858 2°47.564 15.800606 3.986904 31.437072 10.477691
2004-06-01 08:12:38 51°11.85 2°47.537 15.801423 3.987325 31.44196 10.443982
2004-06-01 08:12:42 51°11.842 2°47.516 15.801423 3.987325 31.44196 10.443982
2004-06-01 08:12:48 51°11.832 2°47.483 15.801208 3.988063 31.449628 10.376563
2004-06-01 08:12:53 51°11.823 2°47.457 15.799703 3.988169 31.451147 10.342853
2004-06-01 08:12:58 51°11.814 2°47.43 15.800821 3.988801 31.457297 10.309144
2004-06-01 08:13:02 51°11.807 2°47.408 15.801724 3.989434 31.46404 10.275435
2004-06-01 08:13:08 51°11.796 2°47.376 15.801638 3.989539 31.465559 10.309144
2004-06-01 08:13:13 51°11.787 2°47.349 15.801638 3.989539 31.465559 10.309144
2004-06-01 08:13:18 51°11.778 2°47.322 15.803788 3.98975 31.469189 10.309144
2004-06-01 08:13:22 51°11.771 2°47.301 15.80439 3.989961 31.470449 10.309144
2004-06-01 08:13:28 51°11.76 2°47.269 15.80095 3.990067 31.470191 10.275435
2004-06-01 08:13:33 51°11.752 2°47.242 15.801466 3.990383 31.473563 10.241725
2004-06-01 08:13:38 51°11.743 2°47.215 15.800735 3.990277 31.472044 10.208016
2004-06-01 08:13:42 51°11.736 2°47.193 15.800735 3.990277 31.472044 10.208016
2004-06-01 08:13:48 51°11.725 2°47.161 15.802154 3.990172 31.471118 10.241725
2004-06-01 08:13:53 51°11.716 2°47.134 15.801853 3.990383 31.472971 10.208016
2004-06-01 08:13:58 51°11.707 2°47.108 15.801251 3.99091 31.478196 10.208016
2004-06-01 08:14:02 51°11.7 2°47.086 15.801122 3.990699 31.476343 10.241725
2004-06-01 08:14:08 51°11.689 2°47.054 15.801423 3.991121 31.479457 10.208016
2004-06-01 08:14:13 51°11.68 2°47.028 15.801423 3.991121 31.479457 10.208016
2004-06-01 08:14:18 51°11.671 2°47.001 15.801853 3.991121 31.479457 10.208016
2004-06-01 08:14:23 51°11.663 2°46.974 15.80267 3.991332 31.48131 10.241725
2004-06-01 08:14:28 51°11.654 2°46.948 15.801896 3.991015 31.479123 10.208016
2004-06-01 08:14:33 51°11.645 2°46.921 15.803874 3.991437 31.482829 10.275435
2004-06-01 08:14:38 51°11.636 2°46.895 15.805163 3.991859 31.485943 10.208016
2004-06-01 08:14:42 51°11.629 2°46.873 15.805163 3.991859 31.485943 10.208016
2004-06-01 08:14:48 51°11.619 2°46.841 15.803831 3.991753 31.485609 10.208016
2004-06-01 08:14:52 51°11.612 2°46.82 15.805464 3.99207 31.488981 10.241725
2004-06-01 08:14:58 51°11.601 2°46.788 15.803874 3.992386 31.489983 10.241725
2004-06-01 08:15:02 51°11.594 2°46.766 15.801681 3.992386 31.489983 10.275435
2004-06-01 08:15:08 51°11.583 2°46.734 15.801165 3.99228 31.488464 10.275435
2004-06-01 08:15:13 51°11.575 2°46.707 15.801165 3.99228 31.488464 10.275435
2004-06-01 08:15:18 51°11.566 2°46.681 15.796952 3.992702 31.491577 10.309144
2004-06-01 08:15:22 51°11.559 2°46.659 15.795404 3.993124 31.494691 10.309144
2004-06-01 08:15:28 51°11.549 2°46.627 15.791663 3.993545 31.49899 10.309144
2004-06-01 08:15:32 51°11.542 2°46.605 15.792824 3.994073 31.504809 10.342853
2004-06-01 08:15:38 51°11.533 2°46.573 15.790072 3.994283 31.508442 10.275435
2004-06-01 08:15:42 51°11.526 2°46.551 15.790072 3.994283 31.508442 10.275435
2004-06-01 08:15:48 51°11.517 2°46.518 15.783793 3.994494 31.512668 10.275435
2004-06-01 08:15:52 51°11.511 2°46.496 15.781428 3.995021 31.519082 10.241725
2004-06-01 08:15:57 51°11.502 2°46.469 15.777299 3.995127 31.521196 10.275435
2004-06-01 08:16:02 51°11.494 2°46.442 15.770934 3.995338 31.524237 10.241725
2004-06-01 08:16:08 51°11.484 2°46.409 15.769041 3.995549 31.528465 10.241725
2004-06-01 08:16:12 51°11.478 2°46.388 15.769041 3.995549 31.528465 10.241725
2004-06-01 08:16:17 51°11.47 2°46.36 15.76375 3.995865 31.533621 10.140597
2004-06-01 08:16:22 51°11.462 2°46.333 15.765729 3.996287 31.540894 10.106888
2004-06-01 08:16:28 51°11.453 2°46.299 15.764567 3.996919 31.549428 10.073178
2004-06-01 08:16:33 51°11.446 2°46.272 15.763965 3.997341 31.55611 10.039469
2004-06-01 08:16:38 51°11.439 2°46.244 15.761642 3.997974 31.565243 10.073178
2004-06-01 08:16:42 51°11.433 2°46.222 15.761642 3.997974 31.565243 10.073178
2004-06-01 08:16:48 51°11.424 2°46.188 15.763062 3.997974 31.567027 9.870922
2004-06-01 08:16:52 51°11.418 2°46.166 15.760179 3.998185 31.569477 9.904631
2004-06-01 08:16:58 51°11.41 2°46.133 15.762847 3.99829 31.570405 9.870922
2004-06-01 08:17:02 51°11.404 2°46.11 15.761083 3.998079 31.570334 9.837212
2004-06-01 08:17:08 51°11.395 2°46.077 15.761212 3.997974 31.568811 9.870922
2004-06-01 08:17:13 51°11.388 2°46.049 15.761212 3.997974 31.568811 9.870922
2004-06-01 08:17:18 51°11.381 2°46.022 15.761814 3.997763 31.566956 9.837212
2004-06-01 08:17:22 51°11.375 2°45.999 15.762546 3.997763 31.568741 9.837212
2004-06-01 08:17:28 51°11.367 2°45.966 15.762632 3.997658 31.567813 9.870922
2004-06-01 08:17:32 51°11.361 2°45.944 15.763449 3.997763 31.569335 9.837212
2004-06-01 08:17:38 51°11.352 2°45.91 15.764481 3.997341 31.56503 9.803503
2004-06-01 08:17:40 51°11.35 2°45.899 15.764481 3.997341 31.56503 9.803503
2004-06-01 08:17:48 51°11.338 2°45.855 15.764567 3.997447 31.565957 9.803503
2004-06-01 08:17:52 51°11.332 2°45.833 15.764266 3.997552 31.566885 9.837212
2004-06-01 08:17:58 51°11.322 2°45.8 15.766331 3.997447 31.565362 9.870922
2004-06-01 08:18:02 51°11.315 2°45.779 15.768009 3.997447 31.565362 9.803503
2004-06-01 08:18:08 51°11.305 2°45.747 15.769299 3.997552 31.565695 9.837212
2004-06-01 08:18:13 51°11.295 2°45.721 15.769299 3.997552 31.565695 9.837212
2004-06-01 08:18:18 51°11.286 2°45.696 15.772396 3.997447 31.564768 9.837212
2004-06-01 08:18:22 51°11.278 2°45.675 15.774332 3.997447 31.564768 9.837212
2004-06-01 08:18:28 51°11.267 2°45.644 15.776697 3.997236 31.562318 9.837212
2004-06-01 08:18:32 51°11.259 2°45.624 15.779579 3.997025 31.559273 9.870922
2004-06-01 08:18:38 51°11.248 2°45.593 15.781944 3.99713 31.559011 9.837212
2004-06-01 08:18:43 51°11.238 2°45.567 15.781944 3.99713 31.559011 9.837212
2004-06-01 08:18:48 51°11.229 2°45.541 15.783578 3.99713 31.557227 9.870922
2004-06-01 08:18:53 51°11.219 2°45.516 15.785126 3.997236 31.556966 9.870922
2004-06-01 08:18:58 51°11.21 2°45.49 15.785427 3.997236 31.553399 9.938341
2004-06-01 08:19:02 51°11.202 2°45.47 15.786675 3.997025 31.549761 9.904631
2004-06-01 08:19:08 51°11.191 2°45.439 15.787922 3.997025 31.548573 10.005759
2004-06-01 08:19:12 51°11.184 2°45.418 15.787922 3.997025 31.548573 10.005759
2004-06-01 08:19:18 51°11.172 2°45.387 15.787406 3.99713 31.547718 9.97205
2004-06-01 08:19:22 51°11.165 2°45.367 15.787879 3.99713 31.547124 9.97205
2004-06-01 08:19:28 51°11.154 2°45.336 15.787406 3.99713 31.545935 10.005759
2004-06-01 08:19:32 51°11.146 2°45.315 15.786331 3.997341 31.547196 10.005759
2004-06-01 08:19:38 51°11.135 2°45.284 15.787148 3.997236 31.545674 10.005759
2004-06-01 08:19:42 51°11.128 2°45.264 15.787148 3.997236 31.545674 10.005759
2004-06-01 08:19:48 51°11.116 2°45.233 15.787191 3.99713 31.545341 10.073178
2004-06-01 08:19:52 51°11.109 2°45.212 15.789943 3.997657 31.549383 10.073178
2004-06-01 08:19:58 51°11.098 2°45.181 15.789943 3.997763 31.549716 10.106888
2004-06-01 08:20:02 51°11.092 2°45.159 15.78861 3.997973 31.552165 10.073178
2004-06-01 08:20:08 51°11.081 2°45.128 15.788911 3.997973 31.55157 10.073178
2004-06-01 08:20:13 51°11.073 2°45.102 15.788911 3.997973 31.55157 10.073178
2004-06-01 08:20:18 51°11.065 2°45.075 15.786675 3.998079 31.552498 10.106888
2004-06-01 08:20:20 51°11.062 2°45.064 15.787793 3.998501 31.555018 10.106888
2004-06-01 08:20:28 51°11.05 2°45.021 15.78646 3.998711 31.555684 10.106888
2004-06-01 08:20:33 51°11.043 2°44.994 15.785255 3.999028 31.559654 10.073178
2004-06-01 08:20:38 51°11.036 2°44.967 15.785427 3.970775 31.310723 10.005759
2004-06-01 08:20:43 51°11.029 2°44.94 15.785427 3.970775 31.310723 10.005759
2004-06-01 08:20:48 51°11.022 2°44.913 15.782159 3.999344 31.563624 10.005759
2004-06-01 08:20:53 51°11.014 2°44.885 15.780912 3.999977 31.569188 10.005759
2004-06-01 08:20:58 51°11.007 2°44.858 15.781041 3.999977 31.569188 10.005759
2004-06-01 08:21:02 51°11.001 2°44.837 15.779364 4.000504 31.575013 10.005759
2004-06-01 08:21:08 51°10.993 2°44.804 15.77945 4.001031 31.57965 10.039469
2004-06-01 08:21:13 51°10.986 2°44.776 15.77945 4.001031 31.57965 10.039469
2004-06-01 08:21:18 51°10.979 2°44.749 15.781557 4.001242 31.584479 10.039469
2004-06-01 08:21:21 51°10.975 2°44.732 15.782331 4.001347 31.586001 10.039469
2004-06-01 08:21:28 51°10.966 2°44.693 15.782245 4.001769 31.590901 9.97205
2004-06-01 08:21:32 51°10.961 2°44.67 15.780095 4.002085 31.594279 10.039469
2004-06-01 08:21:38 51°10.954 2°44.637 15.781858 4.002296 31.594944 9.97205
2004-06-01 08:21:42 51°10.948 2°44.615 15.781858 4.002296 31.594944 9.97205
2004-06-01 08:21:48 51°10.941 2°44.581 15.780525 4.002718 31.598058 9.97205
2004-06-01 08:21:53 51°10.934 2°44.553 15.777342 4.002928 31.599318 9.938341
2004-06-01 08:21:58 51°10.928 2°44.526 15.779149 4.003034 31.600841 9.870922
2004-06-01 08:22:02 51°10.922 2°44.503 15.780482 4.003245 31.603291 9.904631
2004-06-01 08:22:08 51°10.915 2°44.47 15.780224 4.003456 31.605146 9.837212
2004-06-01 08:22:13 51°10.908 2°44.442 15.780224 4.003456 31.605146 9.837212
2004-06-01 08:22:18 51°10.902 2°44.414 15.778977 4.003877 31.610047 9.837212
2004-06-01 08:22:22 51°10.897 2°44.392 15.779665 4.003983 31.611571 9.736084
2004-06-01 08:22:28 51°10.89 2°44.358 15.779579 4.004194 31.613426 9.769794
2004-06-01 08:22:32 51°10.884 2°44.336 15.779493 4.004404 31.614686 9.769794
2004-06-01 08:22:37 51°10.878 2°44.308 15.778159 4.00451 31.615613 9.736084
2004-06-01 08:22:42 51°10.872 2°44.281 15.778159 4.00451 31.615613 9.736084
2004-06-01 08:22:48 51°10.864 2°44.247 15.777041 4.005142 31.621179 9.702375
2004-06-01 08:22:52 51°10.859 2°44.225 15.77545 4.005142 31.621179 9.702375
2004-06-01 08:22:58 51°10.851 2°44.192 15.779192 4.005459 31.624558 9.668665
2004-06-01 08:23:02 51°10.846 2°44.17 15.774547 4.005986 31.629792 9.668665
2004-06-01 08:23:08 51°10.839 2°44.137 15.776396 4.006408 31.634099 9.668665
2004-06-01 08:23:12 51°10.834 2°44.114 15.776396 4.006408 31.634099 9.668665
2004-06-01 08:23:18 51°10.826 2°44.081 15.77803 4.006829 31.638406 9.601247
2004-06-01 08:23:22 51°10.821 2°44.059 15.776525 4.007146 31.640593 9.601247
2004-06-01 08:23:28 51°10.813 2°44.025 15.773127 4.007146 31.641189 9.567537
2004-06-01 08:23:32 51°10.808 2°44.003 15.774461 4.007462 31.645165 9.567537
2004-06-01 08:23:38 51°10.801 2°43.97 15.770159 4.007673 31.646425 9.567537
2004-06-01 08:23:42 51°10.796 2°43.948 15.770159 4.007673 31.646425 9.567537
2004-06-01 08:23:48 51°10.788 2°43.914 15.767665 4.008094 31.648944 9.533828
2004-06-01 08:23:52 51°10.783 2°43.892 15.766202 4.008411 31.654112 9.533828
2004-06-01 08:23:58 51°10.776 2°43.859 15.763363 4.008832 31.656631 9.533828
2004-06-01 08:24:02 51°10.77 2°43.837 15.76147 4.009149 31.661204 9.567537
2004-06-01 08:24:08 51°10.763 2°43.804 15.761427 4.009149 31.66359 9.500118
2004-06-01 08:24:13 51°10.757 2°43.776 15.761427 4.009149 31.66359 9.500118
2004-06-01 08:24:17 51°10.752 2°43.754 15.758846 4.009676 31.669424 9.533828
2004-06-01 08:24:22 51°10.745 2°43.726 15.759749 4.010203 31.677049 9.500118
2004-06-01 08:24:28 51°10.737 2°43.693 15.762459 4.010625 31.681359 9.466409
2004-06-01 08:24:32 51°10.732 2°43.671 15.758932 4.010414 31.681294 9.500118
2004-06-01 08:24:38 51°10.725 2°43.638 15.75833 4.010836 31.686201 9.466409
2004-06-01 08:24:42 51°10.719 2°43.616 15.75833 4.010836 31.686201 9.466409
2004-06-01 08:24:48 51°10.712 2°43.583 15.758846 4.010625 31.684344 9.4327
2004-06-01 08:24:52 51°10.707 2°43.561 15.761212 4.011046 31.68746 9.500118
2004-06-01 08:24:58 51°10.699 2°43.528 15.758631 4.011047 31.689252 9.500118
2004-06-01 08:25:02 51°10.694 2°43.506 15.758631 4.010941 31.688921 9.466409
2004-06-01 08:25:08 51°10.686 2°43.473 15.757899 4.011047 31.689252 9.466409
2004-06-01 08:25:12 51°10.682 2°43.451 15.757899 4.011047 31.689252 9.466409
2004-06-01 08:25:18 51°10.674 2°43.419 15.758201 4.011047 31.689252 9.4327
2004-06-01 08:25:21 51°10.67 2°43.402 15.756996 4.011047 31.68985 9.4327
2004-06-01 08:25:28 51°10.661 2°43.364 15.758932 4.010941 31.688921 9.4327
2004-06-01 08:25:32 51°10.656 2°43.341 15.756351 4.010941 31.689519 9.4327
2004-06-01 08:25:38 51°10.648 2°43.308 15.753597 4.011047 31.68985 9.39899
2004-06-01 08:25:42 51°10.643 2°43.286 15.753597 4.011047 31.68985 9.39899
2004-06-01 08:25:48 51°10.636 2°43.253 15.751446 4.011152 31.691375 9.39899
2004-06-01 08:25:52 51°10.63 2°43.231 15.752091 4.011468 31.694758 9.365281
2004-06-01 08:25:58 51°10.623 2°43.198 15.751317 4.011574 31.695089 9.365281
2004-06-01 08:26:02 51°10.618 2°43.176 15.749682 4.011995 31.699998 9.297862
2004-06-01 08:26:08 51°10.61 2°43.143 15.749209 4.012312 31.703978 9.264153
2004-06-01 08:26:12 51°10.605 2°43.121 15.749209 4.012312 31.703978 9.264153
2004-06-01 08:26:18 51°10.598 2°43.088 15.747703 4.012944 31.710745 9.264153
2004-06-01 08:26:22 51°10.593 2°43.067 15.743658 4.01305 31.71287 9.196734
2004-06-01 08:26:28 51°10.585 2°43.034 15.741291 4.013577 31.717513 9.196734
2004-06-01 08:26:32 51°10.58 2°43.012 15.739957 4.013471 31.718378 9.163024
2004-06-01 08:26:38 51°10.572 2°42.979 15.737031 4.014104 31.724548 9.163024
2004-06-01 08:26:42 51°10.567 2°42.957 15.737031 4.014104 31.724548 9.163024
2004-06-01 08:26:47 51°10.561 2°42.93 15.734018 4.01442 31.728531 9.095606
2004-06-01 08:26:52 51°10.555 2°42.902 15.728768 4.015158 31.735033 9.129315
2004-06-01 08:26:56 51°10.55 2°42.88 15.724937 4.01558 31.741142 9.129315
2004-06-01 08:27:02 51°10.542 2°42.848 15.72257 4.016107 31.747582 9.095606
2004-06-01 08:27:08 51°10.535 2°42.815 15.723603 4.016951 31.759806 9.095606
2004-06-01 08:27:13 51°10.528 2°42.788 15.723603 4.016951 31.759806 9.095606
2004-06-01 08:27:18 51°10.523 2°42.76 15.717318 4.017583 31.76598 9.095606
2004-06-01 08:27:22 51°10.517 2°42.739 15.718179 4.018321 31.775481 9.061896
2004-06-01 08:27:28 51°10.51 2°42.706 15.7165 4.018427 31.779408 9.061896
2004-06-01 08:27:32 51°10.505 2°42.684 15.713917 4.018849 31.784925 9.061896
2004-06-01 08:27:38 51°10.497 2°42.651 15.71198 4.018954 31.788254 9.061896
2004-06-01 08:27:42 51°10.492 2°42.63 15.71198 4.018954 31.788254 9.061896
2004-06-01 08:27:48 51°10.485 2°42.597 15.709569 4.019376 31.793172 9.061896
2004-06-01 08:27:52 51°10.479 2°42.576 15.70888 4.019692 31.797761 9.028187
2004-06-01 08:27:58 51°10.472 2°42.543 15.70888 4.019903 31.80082 9.028187
2004-06-01 08:28:02 51°10.467 2°42.521 15.706513 4.020219 31.806011 8.994477
2004-06-01 08:28:07 51°10.461 2°42.494 15.706211 4.02043 31.808471 9.028187
2004-06-01 08:28:12 51°10.455 2°42.466 15.706211 4.02043 31.808471 9.028187
2004-06-01 08:28:16 51°10.45 2°42.445 15.703025 4.02043 31.810872 9.028187
2004-06-01 08:28:22 51°10.442 2°42.412 15.702853 4.020746 31.814263 9.028187
2004-06-01 08:28:28 51°10.435 2°42.379 15.703542 4.020536 31.812403 9.028187
2004-06-01 08:28:33 51°10.429 2°42.352 15.702336 4.02043 31.813875 9.061896
2004-06-01 08:28:38 51°10.422 2°42.325 15.702508 4.020536 31.815406 9.061896
2004-06-01 08:28:42 51°10.417 2°42.303 15.702508 4.020536 31.815406 9.061896
2004-06-01 08:28:48 51°10.41 2°42.27 15.703111 4.020852 31.819397 9.061896
2004-06-01 08:28:52 51°10.404 2°42.249 15.70324 4.020536 31.817208 9.095606
2004-06-01 08:28:58 51°10.397 2°42.216 15.70014 4.020536 31.817208 9.061896
2004-06-01 08:29:03 51°10.391 2°42.189 15.700269 4.02043 31.816878 9.061896
2004-06-01 08:29:08 51°10.384 2°42.161 15.699193 4.020219 31.815018 9.061896
2004-06-01 08:29:12 51°10.379 2°42.14 15.699193 4.020219 31.815018 9.061896
2004-06-01 08:29:18 51°10.372 2°42.107 15.693638 4.020536 31.817808 9.095606
2004-06-01 08:29:21 51°10.368 2°42.09 15.694758 4.02043 31.816278 9.061896
2004-06-01 08:29:28 51°10.36 2°42.052 15.6917 4.020536 31.818409 9.095606
2004-06-01 08:29:32 51°10.355 2°42.031 15.690322 4.020536 31.819611 9.095606
2004-06-01 08:29:38 51°10.347 2°41.998 15.6917 4.020747 31.823274 9.061896
2004-06-01 08:29:42 51°10.342 2°41.977 15.6917 4.020747 31.823274 9.061896
2004-06-01 08:29:48 51°10.335 2°41.944 15.692088 4.020957 31.826937 9.061896
2004-06-01 08:29:52 51°10.33 2°41.923 15.689504 4.021063 31.82907 9.129315
2004-06-01 08:29:58 51°10.322 2°41.89 15.68748 4.020747 31.827481 9.095606
2004-06-01 08:30:03 51°10.316 2°41.863 15.690021 4.020957 31.829342 9.095606
2004-06-01 08:30:08 51°10.31 2°41.836 15.688169 4.020852 31.829614 9.095606
2004-06-01 08:30:13 51°10.304 2°41.809 15.688169 4.020852 31.829614 9.095606
2004-06-01 08:30:18 51°10.297 2°41.782 15.687265 4.021274 31.834538 9.061896
2004-06-01 08:30:22 51°10.293 2°41.76 15.686317 4.021168 31.833607 9.095606
2004-06-01 08:30:28 51°10.285 2°41.728 15.684681 4.021274 31.834538 9.095606
2004-06-01 08:30:32 51°10.28 2°41.706 15.683733 4.021379 31.836069 9.095606
2004-06-01 08:30:38 51°10.272 2°41.674 15.684982 4.021379 31.836671 9.129315
2004-06-01 08:30:42 51°10.267 2°41.652 15.684982 4.021379 31.836671 9.129315
2004-06-01 08:30:48 51°10.26 2°41.619 15.683432 4.021485 31.838202 9.129315
2004-06-01 08:30:52 51°10.255 2°41.598 15.683647 4.021696 31.840665 9.230443
2004-06-01 08:30:58 51°10.248 2°41.566 15.682097 4.02159 31.840937 9.095606
2004-06-01 08:31:02 51°10.243 2°41.544 15.682011 4.021485 31.840608 9.129315
2004-06-01 08:31:07 51°10.237 2°41.517 15.679599 4.021696 31.843071 9.163024
2004-06-01 08:31:12 51°10.231 2°41.49 15.677962 4.021906 31.84433 9.163024
2004-06-01 08:31:16 51°10.226 2°41.468 15.677962 4.021906 31.84433 9.163024
2004-06-01 08:31:22 51°10.218 2°41.436 15.677531 4.02159 31.843344 9.163024
2004-06-01 08:31:28 51°10.211 2°41.404 15.67766 4.021379 31.841482 9.129315
2004-06-01 08:31:33 51°10.205 2°41.377 15.674473 4.021801 31.84701 9.196734
2004-06-01 08:31:38 51°10.199 2°41.35 15.674688 4.02159 31.846352 9.129315
2004-06-01 08:31:42 51°10.194 2°41.328 15.669433 4.021379 31.845092 9.129315
2004-06-01 08:31:48 51°10.187 2°41.296 15.669433 4.021379 31.845092 9.129315
2004-06-01 08:31:53 51°10.181 2°41.268 15.666633 4.021906 31.849144 9.129315
2004-06-01 08:31:58 51°10.175 2°41.242 15.664565 4.02159 31.848759 9.196734
2004-06-01 08:32:02 51°10.17 2°41.22 15.66155 4.021801 31.85062 9.129315
2004-06-01 08:32:08 51°10.163 2°41.188 15.660946 4.022012 31.855492 9.129315
2004-06-01 08:32:12 51°10.158 2°41.166 15.660946 4.022012 31.855492 9.129315
2004-06-01 08:32:18 51°10.151 2°41.134 15.659309 4.022012 31.856696 9.095606
2004-06-01 08:32:23 51°10.144 2°41.107 15.658275 4.021907 31.858776 9.163024
2004-06-01 08:32:28 51°10.138 2°41.081 15.656897 4.021696 31.857516 9.129315
2004-06-01 08:32:32 51°10.133 2°41.059 15.656336 4.021485 31.85746 9.129315
2004-06-01 08:32:38 51°10.126 2°41.027 15.655776 4.02138 31.858938 9.095606
2004-06-01 08:32:42 51°10.121 2°41.005 15.655776 4.02138 31.858938 9.095606
2004-06-01 08:32:48 51°10.114 2°40.973 15.656207 4.020958 31.857623 9.095606
2004-06-01 08:32:52 51°10.109 2°40.951 15.654871 4.020536 31.853898 9.095606
2004-06-01 08:32:58 51°10.102 2°40.919 15.653234 4.020431 31.854172 9.095606
2004-06-01 08:33:02 51°10.097 2°40.897 15.652631 4.020536 31.8545 9.129315
2004-06-01 08:33:08 51°10.09 2°40.865 15.653148 4.020115 31.850776 9.163024
2004-06-01 08:33:12 51°10.085 2°40.844 15.653148 4.020115 31.850776 9.163024
2004-06-01 08:33:18 51°10.077 2°40.812 15.652071 4.020009 31.850447 9.095606
2004-06-01 08:33:21 51°10.073 2°40.796 15.651037 4.020009 31.851651 9.129315
2004-06-01 08:33:28 51°10.065 2°40.758 15.65052 4.019587 31.849131 9.129315
2004-06-01 08:33:32 51°10.06 2°40.737 15.652416 4.019798 31.851596 9.163024
2004-06-01 08:33:38 51°10.053 2°40.704 15.652071 4.019904 31.853129 9.163024
2004-06-01 08:33:42 51°10.049 2°40.683 15.652071 4.019904 31.853129 9.163024
2004-06-01 08:33:48 51°10.041 2°40.651 15.651252 4.019693 31.851267 9.230443
2004-06-01 08:33:52 51°10.036 2°40.629 15.649313 4.019798 31.854005 9.196734
2004-06-01 08:33:58 51°10.029 2°40.597 15.647417 4.020115 31.856197 9.230443
2004-06-01 08:34:03 51°10.023 2°40.57 15.645866 4.020325 31.857457 9.163024
2004-06-01 08:34:08 51°10.017 2°40.543 15.646211 4.020325 31.857457 9.264153
2004-06-01 08:34:13 51°10.011 2°40.517 15.646211 4.020325 31.857457 9.264153
2004-06-01 08:34:18 51°10.005 2°40.489 15.642074 4.020642 31.862058 9.230443
2004-06-01 08:34:21 51°10.002 2°40.473 15.643496 4.020536 31.861729 9.264153
2004-06-01 08:34:28 51°9.993 2°40.436 15.640134 4.020747 31.864195 9.230443
2004-06-01 08:34:33 51°9.987 2°40.409 15.639876 4.020853 31.865729 9.230443
2004-06-01 08:34:38 51°9.981 2°40.382 15.637118 4.020958 31.867263 9.230443
2004-06-01 08:34:43 51°9.975 2°40.355 15.637118 4.020958 31.867263 9.230443
2004-06-01 08:34:48 51°9.969 2°40.328 15.636213 4.020958 31.868469 9.264153
2004-06-01 08:34:53 51°9.963 2°40.301 15.634101 4.021064 31.870003 9.297862
2004-06-01 08:34:58 51°9.957 2°40.274 15.631644 4.021064 31.872414 9.264153
2004-06-01 08:35:03 51°9.951 2°40.247 15.630006 4.020958 31.872688 9.331571
2004-06-01 08:35:08 51°9.945 2°40.22 15.627808 4.021274 31.875483 9.297862
2004-06-01 08:35:12 51°9.939 2°40.199 15.62561 4.021274 31.877895 9.264153
2004-06-01 08:35:18 51°9.932 2°40.167 15.62561 4.021274 31.877895 9.264153
2004-06-01 08:35:22 51°9.927 2°40.145 15.627204 4.021275 31.879102 9.297862
2004-06-01 08:35:28 51°9.92 2°40.113 15.626558 4.021275 31.880308 9.297862
2004-06-01 08:35:32 51°9.915 2°40.091 15.626946 4.021485 31.884585 9.264153
2004-06-01 08:35:38 51°9.908 2°40.058 15.62673 4.021591 31.886723 9.264153
2004-06-01 08:35:42 51°9.903 2°40.037 15.62673 4.021591 31.886723 9.264153
2004-06-01 08:35:48 51°9.896 2°40.004 15.627894 4.021485 31.886395 9.264153
2004-06-01 08:35:52 51°9.891 2°39.982 15.626601 4.021591 31.888533 9.230443
2004-06-01 08:35:58 51°9.883 2°39.95 15.627765 4.021696 31.889465 9.264153
2004-06-01 08:36:03 51°9.878 2°39.922 15.626687 4.022013 31.892261 9.264153
2004-06-01 08:36:08 51°9.871 2°39.896 15.62686 4.022013 31.891658 9.297862
2004-06-01 08:36:12 51°9.867 2°39.874 15.62686 4.022013 31.891658 9.297862
2004-06-01 08:36:18 51°9.859 2°39.841 15.62811 4.02254 31.896317 9.331571
2004-06-01 08:36:22 51°9.855 2°39.819 15.629747 4.022645 31.897853 9.264153
2004-06-01 08:36:27 51°9.849 2°39.792 15.628972 4.023172 31.902513 9.264153
2004-06-01 08:36:32 51°9.843 2°39.765 15.628885 4.023489 31.905309 9.264153
2004-06-01 08:36:36 51°9.838 2°39.744 15.628325 4.024121 31.910901 9.297862
2004-06-01 08:36:42 51°9.83 2°39.711 15.628325 4.024121 31.910901 9.297862
2004-06-01 08:36:48 51°9.823 2°39.679 15.628023 4.024437 31.911886 9.264153
2004-06-01 08:36:52 51°9.818 2°39.657 15.626342 4.025175 31.917806 9.264153
2004-06-01 08:36:58 51°9.811 2°39.624 15.628799 4.025386 31.920274 9.297862
2004-06-01 08:37:02 51°9.806 2°39.603 15.627334 4.02623 31.928334 9.331571
2004-06-01 08:37:08 51°9.799 2°39.57 15.626515 4.026968 31.934859 9.331571
2004-06-01 08:37:12 51°9.794 2°39.549 15.626515 4.026968 31.934859 9.331571
2004-06-01 08:37:18 51°9.787 2°39.516 15.625739 4.0276 31.941056 9.365281
2004-06-01 08:37:22 51°9.782 2°39.495 15.622463 4.027811 31.943525 9.365281
2004-06-01 08:37:28 51°9.775 2°39.463 15.624273 4.028655 31.949169 9.365281
2004-06-01 08:37:33 51°9.769 2°39.436 15.618152 4.029393 31.956298 9.297862
2004-06-01 08:37:38 51°9.763 2°39.409 15.617635 4.030447 31.968041 9.39899
2004-06-01 08:37:42 51°9.758 2°39.387 15.617635 4.030447 31.968041 9.39899
2004-06-01 08:37:46 51°9.753 2°39.366 15.614229 4.030658 31.969905 9.4327
2004-06-01 08:37:53 51°9.745 2°39.328 15.612806 4.031817 31.981372 9.365281
2004-06-01 08:37:58 51°9.739 2°39.301 15.610521 4.032555 31.989109 9.4327
2004-06-01 08:38:00 51°9.737 2°39.29 15.606899 4.033504 31.999319 9.4327
2004-06-01 08:38:08 51°9.727 2°39.247 15.606037 4.034664 32.011395 9.39899
2004-06-01 08:38:13 51°9.721 2°39.22 15.606037 4.034664 32.011395 9.39899
2004-06-01 08:38:18 51°9.715 2°39.193 15.604097 4.035297 32.017597 9.39899
2004-06-01 08:38:23 51°9.709 2°39.166 15.607158 4.036351 32.028744 9.4327
2004-06-01 08:38:28 51°9.704 2°39.139 15.606382 4.037511 32.042038 9.500118
2004-06-01 08:38:32 51°9.699 2°39.118 15.605045 4.038038 32.048523 9.466409
2004-06-01 08:38:38 51°9.692 2°39.086 15.60608 4.039198 32.058786 9.466409
2004-06-01 08:38:41 51°9.688 2°39.069 15.605951 4.039936 32.066532 9.500118
2004-06-01 08:38:48 51°9.68 2°39.032 15.605951 4.039936 32.066532 9.500118
2004-06-01 08:38:52 51°9.676 2°39.01 15.606856 4.040568 32.072131 9.500118
2004-06-01 08:38:58 51°9.668 2°38.978 15.609702 4.041623 32.082678 9.500118
2004-06-01 08:39:02 51°9.664 2°38.957 15.607287 4.042361 32.08921 9.500118
2004-06-01 08:39:08 51°9.657 2°38.924 15.608538 4.043309 32.098217 9.533828
2004-06-01 08:39:12 51°9.652 2°38.903 15.608538 4.043309 32.098217 9.533828
2004-06-01 08:39:18 51°9.645 2°38.87 15.60815 4.043837 32.101668 9.500118
2004-06-01 08:39:22 51°9.64 2°38.849 15.607719 4.044891 32.110393 9.533828
2004-06-01 08:39:28 51°9.633 2°38.817 15.611254 4.045945 32.119118 9.601247
2004-06-01 08:39:32 51°9.628 2°38.795 15.606899 4.04721 32.12971 9.601247
2004-06-01 08:39:38 51°9.621 2°38.763 15.60815 4.047948 32.136852 9.567537
2004-06-01 08:39:42 51°9.617 2°38.742 15.60815 4.047948 32.136852 9.567537
2004-06-01 08:39:48 51°9.61 2°38.709 15.607675 4.048792 32.144319 9.601247
2004-06-01 08:39:52 51°9.605 2°38.688 15.607805 4.049846 32.152436 9.634956
2004-06-01 08:39:58 51°9.598 2°38.656 15.607374 4.050479 32.158646 9.702375
2004-06-01 08:40:02 51°9.593 2°38.635 15.605433 4.051744 32.169239 9.702375
2004-06-01 08:40:08 51°9.586 2°38.603 15.605132 4.052587 32.177316 9.668665
2004-06-01 08:40:12 51°9.581 2°38.581 15.605132 4.052587 32.177316 9.668665
2004-06-01 08:40:18 51°9.574 2°38.549 15.603622 4.053536 32.186328 9.668665
2004-06-01 08:40:23 51°9.568 2°38.522 15.603881 4.05438 32.193797 9.736084
2004-06-01 08:40:28 51°9.563 2°38.495 15.601682 4.055434 32.204354 9.702375
2004-06-01 08:40:32 51°9.558 2°38.474 15.600043 4.056699 32.215559 9.702375
2004-06-01 08:40:38 51°9.551 2°38.442 15.600216 4.057964 32.227375 9.702375
2004-06-01 08:40:42 51°9.546 2°38.421 15.600216 4.057964 32.227375 9.702375
2004-06-01 08:40:48 51°9.539 2°38.388 15.600475 4.058702 32.234522 9.736084
2004-06-01 08:40:52 51°9.534 2°38.367 15.596939 4.059651 32.243538 9.702375
2004-06-01 08:40:58 51°9.527 2°38.335 15.597456 4.060389 32.251298 9.736084
2004-06-01 08:41:02 51°9.523 2°38.314 15.594653 4.061338 32.260926 9.736084
2004-06-01 08:41:08 51°9.516 2°38.282 15.595688 4.062076 32.266854 9.702375
2004-06-01 08:41:13 51°9.51 2°38.255 15.595688 4.062076 32.266854 9.702375
2004-06-01 08:41:18 51°9.504 2°38.229 15.597154 4.063552 32.281766 9.736084
2004-06-01 08:41:22 51°9.5 2°38.207 15.594049 4.063974 32.285503 9.736084
2004-06-01 08:41:28 51°9.492 2°38.175 15.597154 4.064712 32.293878 9.702375
2004-06-01 08:41:32 51°9.488 2°38.154 15.591677 4.06545 32.300418 9.702375
2004-06-01 08:41:38 51°9.481 2°38.122 15.59116 4.065872 32.304767 9.702375
2004-06-01 08:41:41 51°9.477 2°38.106 15.59116 4.065872 32.304767 9.702375
2004-06-01 08:41:48 51°9.469 2°38.069 15.590513 4.066926 32.314723 9.702375
2004-06-01 08:41:52 51°9.464 2°38.048 15.588572 4.067453 32.320008 9.736084
2004-06-01 08:41:58 51°9.457 2°38.016 15.590815 4.068191 32.327162 9.702375
2004-06-01 08:42:03 51°9.451 2°37.99 15.58771 4.069035 32.336476 9.702375
2004-06-01 08:42:08 51°9.446 2°37.963 15.587192 4.069246 32.339571 9.702375
2004-06-01 08:42:12 51°9.441 2°37.942 15.587192 4.069246 32.339571 9.702375
2004-06-01 08:42:17 51°9.435 2°37.915 15.587968 4.069984 32.346726 9.702375
2004-06-01 08:42:22 51°9.429 2°37.889 15.586588 4.070616 32.352334 9.634956
2004-06-01 08:42:28 51°9.422 2°37.857 15.589478 4.070827 32.35543 9.702375
2004-06-01 08:42:32 51°9.417 2°37.836 15.585941 4.07146 32.361039 9.702375
2004-06-01 08:42:38 51°9.41 2°37.804 15.584173 4.072093 32.365421 9.668665
2004-06-01 08:42:43 51°9.404 2°37.778 15.584173 4.072093 32.365421 9.668665
2004-06-01 08:42:48 51°9.399 2°37.752 15.58689 4.072409 32.369452 9.634956
2004-06-01 08:42:53 51°9.393 2°37.725 15.584389 4.072936 32.374126 9.668665
2004-06-01 08:42:58 51°9.387 2°37.698 15.585424 4.073463 32.380028 9.634956
2004-06-01 08:43:02 51°9.382 2°37.677 15.583569 4.07399 32.385316 9.634956
2004-06-01 08:43:08 51°9.375 2°37.646 15.583699 4.074096 32.386251 9.634956
2004-06-01 08:43:12 51°9.371 2°37.624 15.583699 4.074096 32.386251 9.634956
2004-06-01 08:43:16 51°9.366 2°37.603 15.583095 4.074728 32.393088 9.668665
2004-06-01 08:43:21 51°9.36 2°37.577 15.584906 4.07515 32.396214 9.634956
2004-06-01 08:43:28 51°9.351 2°37.542 15.585251 4.075361 32.398084 9.634956
2004-06-01 08:43:32 51°9.345 2°37.523 15.584734 4.075783 32.402439 9.601247
2004-06-01 08:43:38 51°9.337 2°37.495 15.585424 4.076521 32.409598 9.601247
2004-06-01 08:43:42 51°9.332 2°37.478 15.585424 4.076521 32.409598 9.601247
2004-06-01 08:43:48 51°9.323 2°37.452 15.585553 4.076626 32.410533 9.601247
2004-06-01 08:43:52 51°9.317 2°37.436 15.585941 4.076943 32.412724 9.634956
2004-06-01 08:43:58 51°9.307 2°37.415 15.58702 4.077786 32.420205 9.634956
2004-06-01 08:44:03 51°9.299 2°37.398 15.587623 4.078208 32.423946 9.634956
2004-06-01 08:44:08 51°9.291 2°37.384 15.591246 4.078313 32.424266 9.601247
2004-06-01 08:44:13 51°9.282 2°37.371 15.591246 4.078313 32.424266 9.601247
2004-06-01 08:44:18 51°9.275 2°37.358 15.592066 4.078946 32.429877 9.601247
2004-06-01 08:44:22 51°9.27 2°37.347 15.595516 4.079262 32.433297 9.634956
2004-06-01 08:44:28 51°9.263 2°37.332 15.596766 4.079789 32.437358 9.634956
2004-06-01 08:44:33 51°9.258 2°37.319 15.596766 4.080422 32.44174 9.634956
2004-06-01 08:44:38 51°9.253 2°37.307 15.598189 4.080633 32.441765 9.634956
2004-06-01 08:44:42 51°9.249 2°37.298 15.598189 4.080633 32.441765 9.634956
2004-06-01 08:44:48 51°9.244 2°37.285 15.598189 4.081265 32.445532 9.601247
2004-06-01 08:44:52 51°9.24 2°37.277 15.59944 4.081792 32.447748 9.634956
2004-06-01 08:44:58 51°9.235 2°37.265 15.599397 4.082425 32.452128 9.567537
2004-06-01 08:45:03 51°9.231 2°37.257 15.601078 4.083479 32.461478 9.601247
2004-06-01 08:45:08 51°9.227 2°37.249 15.600388 4.084112 32.465859 9.634956
2004-06-01 08:45:12 51°9.224 2°37.243 15.600388 4.084112 32.465859 9.634956
2004-06-01 08:45:18 51°9.219 2°37.236 15.602027 4.084534 32.468984 9.634956
2004-06-01 08:45:21 51°9.216 2°37.233 15.602415 4.085166 32.474594 9.668665
2004-06-01 08:45:28 51°9.21 2°37.226 15.604614 4.085693 32.478039 9.668665
2004-06-01 08:45:32 51°9.207 2°37.223 15.606253 4.08601 32.480844 9.702375
2004-06-01 08:45:38 51°9.203 2°37.218 15.607891 4.086537 32.485519 9.702375
2004-06-01 08:45:42 51°9.2 2°37.215 15.609271 4.08717 32.490515 9.736084
2004-06-01 08:45:48 51°9.195 2°37.212 15.609271 4.08717 32.490515 9.736084
2004-06-01 08:45:52 51°9.192 2°37.209 15.611038 4.087275 32.49145 9.736084
2004-06-01 08:45:58 51°9.188 2°37.206 15.614143 4.087908 32.495213 9.736084
2004-06-01 08:46:02 51°9.185 2°37.203 15.616384 4.088435 32.498658 9.736084
2004-06-01 08:46:08 51°9.181 2°37.2 15.61785 4.089067 32.503652 9.736084
2004-06-01 08:46:13 51°9.179 2°37.197 15.620135 4.089594 32.50648 9.736084
2004-06-01 08:46:18 51°9.176 2°37.195 15.620135 4.089594 32.50648 9.736084
2004-06-01 08:46:21 51°9.174 2°37.193 15.620652 4.090122 32.508692 9.736084
2004-06-01 08:46:28 51°9.171 2°37.189 15.620825 4.090649 32.51152 9.736084
2004-06-01 08:46:33 51°9.17 2°37.186 15.620868 4.090965 32.512478 9.736084
2004-06-01 08:46:38 51°9.168 2°37.184 15.620911 4.091387 32.513754 9.736084
2004-06-01 08:46:43 51°9.166 2°37.181 15.620911 4.091387 32.513754 9.736084
2004-06-01 08:46:48 51°9.165 2°37.178 15.621644 4.092125 32.519683 9.769794
2004-06-01 08:46:53 51°9.164 2°37.176 15.621601 4.092546 32.522806 9.769794
2004-06-01 08:46:58 51°9.163 2°37.174 15.621687 4.092968 32.526546 9.702375
2004-06-01 08:47:02 51°9.163 2°37.173 15.62104 4.09339 32.529669 9.736084
2004-06-01 08:47:08 51°9.162 2°37.172 15.620825 4.093706 32.532474 9.769794
2004-06-01 08:47:12 51°9.162 2°37.172 15.620825 4.093706 32.532474 9.769794
2004-06-01 08:47:18 51°9.162 2°37.172 15.622506 4.093812 32.533409 9.736084
2004-06-01 08:47:22 51°9.162 2°37.172 15.623842 4.094233 32.535916 9.803503
2004-06-01 08:47:28 51°9.161 2°37.172 15.624359 4.094339 32.536851 9.769794
2004-06-01 08:47:32 51°9.161 2°37.172 15.625566 4.094655 32.541504 9.803503
2004-06-01 08:47:38 51°9.161 2°37.172 15.625782 4.094866 32.542758 9.803503
2004-06-01 08:47:42 51°9.161 2°37.172 15.625782 4.094866 32.542758 9.803503
2004-06-01 08:47:48 51°9.161 2°37.172 15.625049 4.094655 32.539656 9.803503
2004-06-01 08:47:52 51°9.16 2°37.172 15.625825 4.095182 32.544946 9.803503
2004-06-01 08:47:58 51°9.16 2°37.172 15.626256 4.095499 32.546519 9.837212
2004-06-01 08:48:02 51°9.16 2°37.173 15.626041 4.095815 32.548707 9.837212
2004-06-01 08:48:08 51°9.16 2°37.173 15.625523 4.09592 32.549642 9.837212
2004-06-01 08:48:12 51°9.16 2°37.173 15.625523 4.09592 32.549642 9.837212
2004-06-01 08:48:18 51°9.16 2°37.173 15.625308 4.096026 32.550577 9.904631
2004-06-01 08:48:21 51°9.16 2°37.174 15.625566 4.096131 32.550895 9.837212
2004-06-01 08:48:28 51°9.161 2°37.174 15.627161 4.096658 32.554954 9.870922
2004-06-01 08:48:32 51°9.161 2°37.174 15.628196 4.096448 32.553084 9.904631
2004-06-01 08:48:38 51°9.161 2°37.175 15.626558 4.096553 32.554019 9.837212
2004-06-01 08:48:42 51°9.161 2°37.175 15.626558 4.096553 32.554019 9.837212
2004-06-01 08:48:48 51°9.161 2°37.176 15.626601 4.096764 32.555272 9.870922
2004-06-01 08:48:53 51°9.161 2°37.177 15.627032 4.096448 32.552467 9.870922
2004-06-01 08:48:58 51°9.161 2°37.177 15.627851 4.096658 32.554337 9.870922
2004-06-01 08:49:02 51°9.162 2°37.178 15.627506 4.09708 32.558077 9.904631
2004-06-01 08:49:08 51°9.162 2°37.178 15.628454 4.096975 32.556525 9.904631
2004-06-01 08:49:13 51°9.162 2°37.179 15.628454 4.096975 32.556525 9.904631
2004-06-01 08:49:18 51°9.162 2°37.18 15.629101 4.097186 32.557779 9.904631
2004-06-01 08:49:22 51°9.163 2°37.18 15.630954 4.097291 32.55933 9.938341
2004-06-01 08:49:28 51°9.163 2°37.181 15.630049 4.097396 32.559649 9.904631
2004-06-01 08:49:32 51°9.163 2°37.182 15.631558 4.097396 32.559649 9.97205
2004-06-01 08:49:38 51°9.164 2°37.183 15.630653 4.097502 32.559967 9.938341
2004-06-01 08:49:42 51°9.164 2°37.183 15.628066 4.097818 32.562772 9.904631
2004-06-01 08:49:48 51°9.165 2°37.184 15.628066 4.097818 32.562772 9.904631
2004-06-01 08:49:52 51°9.165 2°37.185 15.631601 4.097713 32.56122 9.938341
2004-06-01 08:49:58 51°9.165 2°37.186 15.628842 4.09339 32.521664 9.938341
2004-06-01 08:50:02 51°9.166 2°37.187 15.62811 4.097924 32.561857 9.938341
2004-06-01 08:50:08 51°9.166 2°37.188 15.628282 4.098345 32.566213 10.005759
2004-06-01 08:50:13 51°9.167 2°37.189 15.628282 4.098345 32.566213 10.005759
2004-06-01 08:50:18 51°9.167 2°37.19 15.628799 4.09824 32.565278 9.97205
2004-06-01 08:50:22 51°9.168 2°37.19 15.627377 4.09824 32.565278 9.97205
2004-06-01 08:50:28 51°9.168 2°37.191 15.627506 4.098345 32.566829 9.97205
2004-06-01 08:50:33 51°9.169 2°37.192 15.627377 4.098345 32.568062 10.005759
2004-06-01 08:50:38 51°9.169 2°37.193 15.626687 4.097924 32.563706 9.97205
2004-06-01 08:50:42 51°9.17 2°37.194 15.626687 4.097924 32.563706 9.97205
2004-06-01 08:50:48 51°9.171 2°37.195 15.628713 4.098451 32.568997 10.005759